
<gpx xmlns="http://www.topografix.com/GPX/1/1" xmlns:gpxx="http://www.garmin.com/xmlschemas/GpxExtensions/v3" xmlns:xsi="http://www.w3.org/2001/XMLSchema-instance" version="1.1" creator="Adze - http://kobotsw.com/apps/adze" xsi:schemaLocation="http://www.topografix.com/GPX/1/1 http://www.topografix.com/GPX/1/1/gpx.xsd http://www.garmin.com/xmlschemas/GpxExtensions/v3 http://www.garmin.com/xmlschemas/GpxExtensionsv3.xsd">
    <metadata>
        <name>Untitled Document</name>
        <link href="http://www.garmin.com"></link>
        <time>2018-02-26T04:51:29.451Z</time>
    </metadata>
    <wpt lon="99.679750" lat="13.185569">
        <ele>33.000000</ele>
        <name>Thanatthichaburi Resort</name>
        <cmt>23-NOV-13 10:33:10</cmt>
        <desc>23-NOV-13 10:33:10</desc>
        <sym>Lodging</sym>
        <extensions>
            <gpxx:WaypointExtension xmlns:gpxx="http://www.garmin.com/xmlschemas/GpxExtensions/v3">
                <gpxx:DisplayMode>SymbolOnly</gpxx:DisplayMode>
            </gpxx:WaypointExtension>
        </extensions>
    </wpt>
    <wpt lon="99.708359" lat="13.214600">
        <ele>114.000000</ele>
        <time>2015-02-22T04:04:21Z</time>
        <name>Water Sun</name>
        <sym>Drinking Water</sym>
        <extensions>
            <gpxx:WaypointExtension xmlns:gpxx="http://www.garmin.com/xmlschemas/GpxExtensions/v3">
                <gpxx:DisplayMode>SymbolOnly</gpxx:DisplayMode>
            </gpxx:WaypointExtension>
        </extensions>
    </wpt>
    <trk>
        <name>Sunday</name>
        <extensions>
            <gpxx:TrackExtension xmlns:gpxx="http://www.garmin.com/xmlschemas/GpxExtensions/v3">
                <gpxx:DisplayColor>Green</gpxx:DisplayColor>
            </gpxx:TrackExtension>
        </extensions>
        <trkseg>
            <trkpt lon="99.679487" lat="13.184984">
                <ele>112.610000</ele>
                <time>2015-02-22T02:55:53Z</time>
            </trkpt>
            <trkpt lon="99.679518" lat="13.184946">
                <ele>113.090000</ele>
                <time>2015-02-22T02:55:59Z</time>
            </trkpt>
            <trkpt lon="99.679725" lat="13.184944">
                <ele>111.650000</ele>
                <time>2015-02-22T02:56:07Z</time>
            </trkpt>
            <trkpt lon="99.679799" lat="13.184997">
                <ele>111.170000</ele>
                <time>2015-02-22T02:56:09Z</time>
            </trkpt>
            <trkpt lon="99.680024" lat="13.185197">
                <ele>110.210000</ele>
                <time>2015-02-22T02:56:16Z</time>
            </trkpt>
            <trkpt lon="99.680398" lat="13.185434">
                <ele>109.730000</ele>
                <time>2015-02-22T02:56:27Z</time>
            </trkpt>
            <trkpt lon="99.680418" lat="13.185469">
                <ele>109.730000</ele>
                <time>2015-02-22T02:56:28Z</time>
            </trkpt>
            <trkpt lon="99.680435" lat="13.185511">
                <ele>109.730000</ele>
                <time>2015-02-22T02:56:29Z</time>
            </trkpt>
            <trkpt lon="99.680443" lat="13.185556">
                <ele>109.250000</ele>
                <time>2015-02-22T02:56:30Z</time>
            </trkpt>
            <trkpt lon="99.680442" lat="13.185606">
                <ele>109.250000</ele>
                <time>2015-02-22T02:56:31Z</time>
            </trkpt>
            <trkpt lon="99.680438" lat="13.185655">
                <ele>109.250000</ele>
                <time>2015-02-22T02:56:32Z</time>
            </trkpt>
            <trkpt lon="99.680444" lat="13.185836">
                <ele>108.290000</ele>
                <time>2015-02-22T02:56:41Z</time>
            </trkpt>
            <trkpt lon="99.680517" lat="13.185849">
                <ele>108.290000</ele>
                <time>2015-02-22T02:56:54Z</time>
            </trkpt>
            <trkpt lon="99.680556" lat="13.185844">
                <ele>108.770000</ele>
                <time>2015-02-22T02:56:58Z</time>
            </trkpt>
            <trkpt lon="99.680576" lat="13.185848">
                <ele>108.770000</ele>
                <time>2015-02-22T02:57:00Z</time>
            </trkpt>
            <trkpt lon="99.680584" lat="13.185857">
                <ele>108.770000</ele>
                <time>2015-02-22T02:57:01Z</time>
            </trkpt>
            <trkpt lon="99.680586" lat="13.185874">
                <ele>108.770000</ele>
                <time>2015-02-22T02:57:02Z</time>
            </trkpt>
            <trkpt lon="99.680584" lat="13.185895">
                <ele>108.290000</ele>
                <time>2015-02-22T02:57:03Z</time>
            </trkpt>
            <trkpt lon="99.680581" lat="13.185919">
                <ele>108.290000</ele>
                <time>2015-02-22T02:57:04Z</time>
            </trkpt>
            <trkpt lon="99.680579" lat="13.185947">
                <ele>108.290000</ele>
                <time>2015-02-22T02:57:05Z</time>
            </trkpt>
            <trkpt lon="99.680593" lat="13.186193">
                <ele>107.810000</ele>
                <time>2015-02-22T02:57:13Z</time>
            </trkpt>
            <trkpt lon="99.681118" lat="13.186251">
                <ele>106.840000</ele>
                <time>2015-02-22T02:57:26Z</time>
            </trkpt>
            <trkpt lon="99.681570" lat="13.186244">
                <ele>105.400000</ele>
                <time>2015-02-22T02:57:38Z</time>
            </trkpt>
            <trkpt lon="99.682019" lat="13.186455">
                <ele>103.000000</ele>
                <time>2015-02-22T02:57:52Z</time>
            </trkpt>
            <trkpt lon="99.682338" lat="13.186491">
                <ele>102.040000</ele>
                <time>2015-02-22T02:58:02Z</time>
            </trkpt>
            <trkpt lon="99.682449" lat="13.186665">
                <ele>101.560000</ele>
                <time>2015-02-22T02:58:12Z</time>
            </trkpt>
            <trkpt lon="99.682456" lat="13.186674">
                <ele>101.560000</ele>
                <time>2015-02-22T02:58:13Z</time>
            </trkpt>
            <trkpt lon="99.682478" lat="13.186684">
                <ele>102.040000</ele>
                <time>2015-02-22T02:58:16Z</time>
            </trkpt>
            <trkpt lon="99.682755" lat="13.186658">
                <ele>106.360000</ele>
                <time>2015-02-22T02:58:30Z</time>
            </trkpt>
            <trkpt lon="99.682988" lat="13.186651">
                <ele>110.210000</ele>
                <time>2015-02-22T02:58:43Z</time>
            </trkpt>
            <trkpt lon="99.683035" lat="13.186717">
                <ele>110.690000</ele>
                <time>2015-02-22T02:58:48Z</time>
            </trkpt>
            <trkpt lon="99.683103" lat="13.186863">
                <ele>110.210000</ele>
                <time>2015-02-22T02:58:55Z</time>
            </trkpt>
            <trkpt lon="99.683197" lat="13.187141">
                <ele>110.690000</ele>
                <time>2015-02-22T02:59:05Z</time>
            </trkpt>
            <trkpt lon="99.683145" lat="13.187399">
                <ele>109.730000</ele>
                <time>2015-02-22T02:59:14Z</time>
            </trkpt>
            <trkpt lon="99.683206" lat="13.187511">
                <ele>109.730000</ele>
                <time>2015-02-22T02:59:18Z</time>
            </trkpt>
            <trkpt lon="99.683514" lat="13.187736">
                <ele>111.170000</ele>
                <time>2015-02-22T02:59:30Z</time>
            </trkpt>
            <trkpt lon="99.683648" lat="13.187750">
                <ele>111.170000</ele>
                <time>2015-02-22T02:59:34Z</time>
            </trkpt>
            <trkpt lon="99.683820" lat="13.187619">
                <ele>109.250000</ele>
                <time>2015-02-22T02:59:41Z</time>
            </trkpt>
            <trkpt lon="99.684300" lat="13.187415">
                <ele>107.320000</ele>
                <time>2015-02-22T02:59:56Z</time>
            </trkpt>
            <trkpt lon="99.684366" lat="13.187294">
                <ele>105.880000</ele>
                <time>2015-02-22T03:00:01Z</time>
            </trkpt>
            <trkpt lon="99.684540" lat="13.187214">
                <ele>104.920000</ele>
                <time>2015-02-22T03:00:07Z</time>
            </trkpt>
            <trkpt lon="99.684872" lat="13.187098">
                <ele>103.960000</ele>
                <time>2015-02-22T03:00:15Z</time>
            </trkpt>
            <trkpt lon="99.685071" lat="13.186941">
                <ele>103.480000</ele>
                <time>2015-02-22T03:00:22Z</time>
            </trkpt>
            <trkpt lon="99.685167" lat="13.186785">
                <ele>104.440000</ele>
                <time>2015-02-22T03:00:32Z</time>
            </trkpt>
            <trkpt lon="99.685225" lat="13.186658">
                <ele>106.840000</ele>
                <time>2015-02-22T03:00:46Z</time>
            </trkpt>
            <trkpt lon="99.685353" lat="13.186393">
                <ele>106.360000</ele>
                <time>2015-02-22T03:00:55Z</time>
            </trkpt>
            <trkpt lon="99.685270" lat="13.186052">
                <ele>106.360000</ele>
                <time>2015-02-22T03:01:06Z</time>
            </trkpt>
            <trkpt lon="99.685195" lat="13.185746">
                <ele>108.290000</ele>
                <time>2015-02-22T03:01:17Z</time>
            </trkpt>
            <trkpt lon="99.685201" lat="13.185711">
                <ele>108.290000</ele>
                <time>2015-02-22T03:01:18Z</time>
            </trkpt>
            <trkpt lon="99.685323" lat="13.185386">
                <ele>107.320000</ele>
                <time>2015-02-22T03:01:28Z</time>
            </trkpt>
            <trkpt lon="99.685287" lat="13.185071">
                <ele>110.210000</ele>
                <time>2015-02-22T03:01:38Z</time>
            </trkpt>
            <trkpt lon="99.685148" lat="13.184846">
                <ele>110.690000</ele>
                <time>2015-02-22T03:01:47Z</time>
            </trkpt>
            <trkpt lon="99.684846" lat="13.184657">
                <ele>110.210000</ele>
                <time>2015-02-22T03:01:59Z</time>
            </trkpt>
            <trkpt lon="99.684792" lat="13.184623">
                <ele>110.690000</ele>
                <time>2015-02-22T03:02:02Z</time>
            </trkpt>
            <trkpt lon="99.684780" lat="13.184583">
                <ele>110.690000</ele>
                <time>2015-02-22T03:02:07Z</time>
            </trkpt>
            <trkpt lon="99.684797" lat="13.184576">
                <ele>110.690000</ele>
                <time>2015-02-22T03:02:09Z</time>
            </trkpt>
            <trkpt lon="99.684845" lat="13.184562">
                <ele>110.210000</ele>
                <time>2015-02-22T03:02:24Z</time>
            </trkpt>
            <trkpt lon="99.684852" lat="13.184557">
                <ele>109.730000</ele>
                <time>2015-02-22T03:02:50Z</time>
            </trkpt>
            <trkpt lon="99.684855" lat="13.184537">
                <ele>109.730000</ele>
                <time>2015-02-22T03:03:04Z</time>
            </trkpt>
            <trkpt lon="99.684966" lat="13.184361">
                <ele>110.210000</ele>
                <time>2015-02-22T03:03:14Z</time>
            </trkpt>
            <trkpt lon="99.685098" lat="13.184222">
                <ele>109.730000</ele>
                <time>2015-02-22T03:03:22Z</time>
            </trkpt>
            <trkpt lon="99.685107" lat="13.183967">
                <ele>107.320000</ele>
                <time>2015-02-22T03:03:35Z</time>
            </trkpt>
            <trkpt lon="99.685143" lat="13.183838">
                <ele>107.810000</ele>
                <time>2015-02-22T03:03:43Z</time>
            </trkpt>
            <trkpt lon="99.685150" lat="13.183737">
                <ele>108.290000</ele>
                <time>2015-02-22T03:03:48Z</time>
            </trkpt>
            <trkpt lon="99.685251" lat="13.183479">
                <ele>107.810000</ele>
                <time>2015-02-22T03:04:00Z</time>
            </trkpt>
            <trkpt lon="99.685115" lat="13.183130">
                <ele>107.320000</ele>
                <time>2015-02-22T03:04:10Z</time>
            </trkpt>
            <trkpt lon="99.685004" lat="13.182989">
                <ele>105.880000</ele>
                <time>2015-02-22T03:04:15Z</time>
            </trkpt>
            <trkpt lon="99.684963" lat="13.182831">
                <ele>105.400000</ele>
                <time>2015-02-22T03:04:21Z</time>
            </trkpt>
            <trkpt lon="99.684906" lat="13.182677">
                <ele>105.880000</ele>
                <time>2015-02-22T03:04:32Z</time>
            </trkpt>
            <trkpt lon="99.684801" lat="13.182527">
                <ele>103.960000</ele>
                <time>2015-02-22T03:04:46Z</time>
            </trkpt>
            <trkpt lon="99.684636" lat="13.182428">
                <ele>101.080000</ele>
                <time>2015-02-22T03:04:56Z</time>
            </trkpt>
            <trkpt lon="99.684584" lat="13.182432">
                <ele>99.630000</ele>
                <time>2015-02-22T03:05:06Z</time>
            </trkpt>
            <trkpt lon="99.684482" lat="13.182375">
                <ele>98.190000</ele>
                <time>2015-02-22T03:05:17Z</time>
            </trkpt>
            <trkpt lon="99.684379" lat="13.182254">
                <ele>99.150000</ele>
                <time>2015-02-22T03:05:24Z</time>
            </trkpt>
            <trkpt lon="99.684230" lat="13.181783">
                <ele>99.150000</ele>
                <time>2015-02-22T03:05:37Z</time>
            </trkpt>
            <trkpt lon="99.684310" lat="13.181694">
                <ele>98.190000</ele>
                <time>2015-02-22T03:05:41Z</time>
            </trkpt>
            <trkpt lon="99.684860" lat="13.181474">
                <ele>93.870000</ele>
                <time>2015-02-22T03:05:56Z</time>
            </trkpt>
            <trkpt lon="99.685451" lat="13.181239">
                <ele>91.460000</ele>
                <time>2015-02-22T03:06:11Z</time>
            </trkpt>
            <trkpt lon="99.686092" lat="13.180936">
                <ele>90.500000</ele>
                <time>2015-02-22T03:06:27Z</time>
            </trkpt>
            <trkpt lon="99.686456" lat="13.180643">
                <ele>88.580000</ele>
                <time>2015-02-22T03:06:39Z</time>
            </trkpt>
            <trkpt lon="99.686606" lat="13.180521">
                <ele>87.620000</ele>
                <time>2015-02-22T03:06:43Z</time>
            </trkpt>
            <trkpt lon="99.686636" lat="13.180488">
                <ele>87.140000</ele>
                <time>2015-02-22T03:06:44Z</time>
            </trkpt>
            <trkpt lon="99.686693" lat="13.180414">
                <ele>86.660000</ele>
                <time>2015-02-22T03:06:46Z</time>
            </trkpt>
            <trkpt lon="99.686767" lat="13.180278">
                <ele>85.690000</ele>
                <time>2015-02-22T03:06:49Z</time>
            </trkpt>
            <trkpt lon="99.686789" lat="13.180229">
                <ele>85.210000</ele>
                <time>2015-02-22T03:06:50Z</time>
            </trkpt>
            <trkpt lon="99.686928" lat="13.179992">
                <ele>84.250000</ele>
                <time>2015-02-22T03:06:55Z</time>
            </trkpt>
            <trkpt lon="99.687290" lat="13.179397">
                <ele>82.810000</ele>
                <time>2015-02-22T03:07:08Z</time>
            </trkpt>
            <trkpt lon="99.687375" lat="13.179208">
                <ele>82.330000</ele>
                <time>2015-02-22T03:07:12Z</time>
            </trkpt>
            <trkpt lon="99.687403" lat="13.179169">
                <ele>82.330000</ele>
                <time>2015-02-22T03:07:13Z</time>
            </trkpt>
            <trkpt lon="99.687440" lat="13.179131">
                <ele>82.330000</ele>
                <time>2015-02-22T03:07:14Z</time>
            </trkpt>
            <trkpt lon="99.687486" lat="13.179106">
                <ele>82.330000</ele>
                <time>2015-02-22T03:07:15Z</time>
            </trkpt>
            <trkpt lon="99.687536" lat="13.179087">
                <ele>82.330000</ele>
                <time>2015-02-22T03:07:16Z</time>
            </trkpt>
            <trkpt lon="99.687587" lat="13.179081">
                <ele>82.330000</ele>
                <time>2015-02-22T03:07:17Z</time>
            </trkpt>
            <trkpt lon="99.687638" lat="13.179079">
                <ele>82.330000</ele>
                <time>2015-02-22T03:07:18Z</time>
            </trkpt>
            <trkpt lon="99.687689" lat="13.179079">
                <ele>82.810000</ele>
                <time>2015-02-22T03:07:19Z</time>
            </trkpt>
            <trkpt lon="99.687743" lat="13.179083">
                <ele>82.810000</ele>
                <time>2015-02-22T03:07:20Z</time>
            </trkpt>
            <trkpt lon="99.688051" lat="13.179130">
                <ele>83.770000</ele>
                <time>2015-02-22T03:07:26Z</time>
            </trkpt>
            <trkpt lon="99.688099" lat="13.179127">
                <ele>83.770000</ele>
                <time>2015-02-22T03:07:27Z</time>
            </trkpt>
            <trkpt lon="99.688143" lat="13.179111">
                <ele>84.250000</ele>
                <time>2015-02-22T03:07:28Z</time>
            </trkpt>
            <trkpt lon="99.688175" lat="13.179080">
                <ele>84.250000</ele>
                <time>2015-02-22T03:07:29Z</time>
            </trkpt>
            <trkpt lon="99.688193" lat="13.179045">
                <ele>84.250000</ele>
                <time>2015-02-22T03:07:30Z</time>
            </trkpt>
            <trkpt lon="99.688199" lat="13.179008">
                <ele>84.730000</ele>
                <time>2015-02-22T03:07:31Z</time>
            </trkpt>
            <trkpt lon="99.688202" lat="13.178966">
                <ele>84.730000</ele>
                <time>2015-02-22T03:07:32Z</time>
            </trkpt>
            <trkpt lon="99.688199" lat="13.178614">
                <ele>83.770000</ele>
                <time>2015-02-22T03:07:39Z</time>
            </trkpt>
            <trkpt lon="99.688220" lat="13.178331">
                <ele>83.290000</ele>
                <time>2015-02-22T03:07:44Z</time>
            </trkpt>
            <trkpt lon="99.688226" lat="13.178277">
                <ele>83.290000</ele>
                <time>2015-02-22T03:07:45Z</time>
            </trkpt>
            <trkpt lon="99.688227" lat="13.178226">
                <ele>83.290000</ele>
                <time>2015-02-22T03:07:46Z</time>
            </trkpt>
            <trkpt lon="99.688227" lat="13.178175">
                <ele>83.290000</ele>
                <time>2015-02-22T03:07:47Z</time>
            </trkpt>
            <trkpt lon="99.688231" lat="13.178124">
                <ele>83.290000</ele>
                <time>2015-02-22T03:07:48Z</time>
            </trkpt>
            <trkpt lon="99.688245" lat="13.177455">
                <ele>83.290000</ele>
                <time>2015-02-22T03:08:03Z</time>
            </trkpt>
            <trkpt lon="99.688277" lat="13.177212">
                <ele>83.770000</ele>
                <time>2015-02-22T03:08:11Z</time>
            </trkpt>
            <trkpt lon="99.688299" lat="13.177206">
                <ele>83.770000</ele>
                <time>2015-02-22T03:08:12Z</time>
            </trkpt>
            <trkpt lon="99.688321" lat="13.177206">
                <ele>83.770000</ele>
                <time>2015-02-22T03:08:13Z</time>
            </trkpt>
            <trkpt lon="99.688350" lat="13.177212">
                <ele>83.290000</ele>
                <time>2015-02-22T03:08:14Z</time>
            </trkpt>
            <trkpt lon="99.688382" lat="13.177223">
                <ele>83.770000</ele>
                <time>2015-02-22T03:08:15Z</time>
            </trkpt>
            <trkpt lon="99.688418" lat="13.177235">
                <ele>83.770000</ele>
                <time>2015-02-22T03:08:16Z</time>
            </trkpt>
            <trkpt lon="99.688457" lat="13.177245">
                <ele>83.770000</ele>
                <time>2015-02-22T03:08:17Z</time>
            </trkpt>
            <trkpt lon="99.688501" lat="13.177254">
                <ele>83.770000</ele>
                <time>2015-02-22T03:08:18Z</time>
            </trkpt>
            <trkpt lon="99.688894" lat="13.177364">
                <ele>82.330000</ele>
                <time>2015-02-22T03:08:26Z</time>
            </trkpt>
            <trkpt lon="99.688947" lat="13.177384">
                <ele>81.850000</ele>
                <time>2015-02-22T03:08:27Z</time>
            </trkpt>
            <trkpt lon="99.689111" lat="13.177450">
                <ele>80.890000</ele>
                <time>2015-02-22T03:08:30Z</time>
            </trkpt>
            <trkpt lon="99.689403" lat="13.177609">
                <ele>80.890000</ele>
                <time>2015-02-22T03:08:36Z</time>
            </trkpt>
            <trkpt lon="99.689443" lat="13.177638">
                <ele>80.890000</ele>
                <time>2015-02-22T03:08:37Z</time>
            </trkpt>
            <trkpt lon="99.689517" lat="13.177704">
                <ele>81.370000</ele>
                <time>2015-02-22T03:08:39Z</time>
            </trkpt>
            <trkpt lon="99.689687" lat="13.177904">
                <ele>80.410000</ele>
                <time>2015-02-22T03:08:44Z</time>
            </trkpt>
            <trkpt lon="99.689727" lat="13.177934">
                <ele>80.410000</ele>
                <time>2015-02-22T03:08:45Z</time>
            </trkpt>
            <trkpt lon="99.689770" lat="13.177957">
                <ele>80.410000</ele>
                <time>2015-02-22T03:08:46Z</time>
            </trkpt>
            <trkpt lon="99.689810" lat="13.177979">
                <ele>80.410000</ele>
                <time>2015-02-22T03:08:47Z</time>
            </trkpt>
            <trkpt lon="99.689844" lat="13.178005">
                <ele>79.930000</ele>
                <time>2015-02-22T03:08:48Z</time>
            </trkpt>
            <trkpt lon="99.689870" lat="13.178037">
                <ele>79.450000</ele>
                <time>2015-02-22T03:08:49Z</time>
            </trkpt>
            <trkpt lon="99.689894" lat="13.178074">
                <ele>79.450000</ele>
                <time>2015-02-22T03:08:50Z</time>
            </trkpt>
            <trkpt lon="99.689918" lat="13.178115">
                <ele>78.970000</ele>
                <time>2015-02-22T03:08:51Z</time>
            </trkpt>
            <trkpt lon="99.690002" lat="13.178371">
                <ele>77.520000</ele>
                <time>2015-02-22T03:08:56Z</time>
            </trkpt>
            <trkpt lon="99.690039" lat="13.178532">
                <ele>77.040000</ele>
                <time>2015-02-22T03:08:59Z</time>
            </trkpt>
            <trkpt lon="99.690062" lat="13.178580">
                <ele>77.040000</ele>
                <time>2015-02-22T03:09:00Z</time>
            </trkpt>
            <trkpt lon="99.690095" lat="13.178621">
                <ele>76.560000</ele>
                <time>2015-02-22T03:09:01Z</time>
            </trkpt>
            <trkpt lon="99.690134" lat="13.178654">
                <ele>76.560000</ele>
                <time>2015-02-22T03:09:02Z</time>
            </trkpt>
            <trkpt lon="99.690174" lat="13.178684">
                <ele>76.560000</ele>
                <time>2015-02-22T03:09:03Z</time>
            </trkpt>
            <trkpt lon="99.690212" lat="13.178718">
                <ele>76.560000</ele>
                <time>2015-02-22T03:09:04Z</time>
            </trkpt>
            <trkpt lon="99.690244" lat="13.178759">
                <ele>76.560000</ele>
                <time>2015-02-22T03:09:05Z</time>
            </trkpt>
            <trkpt lon="99.690303" lat="13.178852">
                <ele>76.560000</ele>
                <time>2015-02-22T03:09:07Z</time>
            </trkpt>
            <trkpt lon="99.690694" lat="13.179377">
                <ele>77.520000</ele>
                <time>2015-02-22T03:09:20Z</time>
            </trkpt>
            <trkpt lon="99.690725" lat="13.179417">
                <ele>77.520000</ele>
                <time>2015-02-22T03:09:21Z</time>
            </trkpt>
            <trkpt lon="99.690789" lat="13.179491">
                <ele>77.520000</ele>
                <time>2015-02-22T03:09:23Z</time>
            </trkpt>
            <trkpt lon="99.690826" lat="13.179515">
                <ele>77.520000</ele>
                <time>2015-02-22T03:09:24Z</time>
            </trkpt>
            <trkpt lon="99.690867" lat="13.179525">
                <ele>77.520000</ele>
                <time>2015-02-22T03:09:25Z</time>
            </trkpt>
            <trkpt lon="99.690910" lat="13.179526">
                <ele>78.000000</ele>
                <time>2015-02-22T03:09:26Z</time>
            </trkpt>
            <trkpt lon="99.690955" lat="13.179519">
                <ele>78.480000</ele>
                <time>2015-02-22T03:09:27Z</time>
            </trkpt>
            <trkpt lon="99.691072" lat="13.179472">
                <ele>78.970000</ele>
                <time>2015-02-22T03:09:30Z</time>
            </trkpt>
            <trkpt lon="99.691743" lat="13.179052">
                <ele>76.560000</ele>
                <time>2015-02-22T03:09:46Z</time>
            </trkpt>
            <trkpt lon="99.692164" lat="13.178929">
                <ele>78.480000</ele>
                <time>2015-02-22T03:09:59Z</time>
            </trkpt>
            <trkpt lon="99.692338" lat="13.179016">
                <ele>78.480000</ele>
                <time>2015-02-22T03:10:04Z</time>
            </trkpt>
            <trkpt lon="99.692517" lat="13.179052">
                <ele>78.000000</ele>
                <time>2015-02-22T03:10:08Z</time>
            </trkpt>
            <trkpt lon="99.692826" lat="13.178950">
                <ele>78.000000</ele>
                <time>2015-02-22T03:10:15Z</time>
            </trkpt>
            <trkpt lon="99.692935" lat="13.178854">
                <ele>78.000000</ele>
                <time>2015-02-22T03:10:18Z</time>
            </trkpt>
            <trkpt lon="99.693184" lat="13.178734">
                <ele>78.000000</ele>
                <time>2015-02-22T03:10:24Z</time>
            </trkpt>
            <trkpt lon="99.693754" lat="13.178672">
                <ele>78.480000</ele>
                <time>2015-02-22T03:10:36Z</time>
            </trkpt>
            <trkpt lon="99.693823" lat="13.178489">
                <ele>77.520000</ele>
                <time>2015-02-22T03:10:41Z</time>
            </trkpt>
            <trkpt lon="99.693775" lat="13.178184">
                <ele>77.040000</ele>
                <time>2015-02-22T03:10:48Z</time>
            </trkpt>
            <trkpt lon="99.693653" lat="13.177793">
                <ele>76.560000</ele>
                <time>2015-02-22T03:10:57Z</time>
            </trkpt>
            <trkpt lon="99.693620" lat="13.177545">
                <ele>76.080000</ele>
                <time>2015-02-22T03:11:02Z</time>
            </trkpt>
            <trkpt lon="99.693826" lat="13.177253">
                <ele>76.080000</ele>
                <time>2015-02-22T03:11:11Z</time>
            </trkpt>
            <trkpt lon="99.693968" lat="13.177171">
                <ele>76.560000</ele>
                <time>2015-02-22T03:11:18Z</time>
            </trkpt>
            <trkpt lon="99.694004" lat="13.177164">
                <ele>78.480000</ele>
                <time>2015-02-22T03:11:36Z</time>
            </trkpt>
            <trkpt lon="99.694004" lat="13.177130">
                <ele>81.370000</ele>
                <time>2015-02-22T03:11:58Z</time>
            </trkpt>
            <trkpt lon="99.694056" lat="13.177140">
                <ele>80.410000</ele>
                <time>2015-02-22T03:12:13Z</time>
            </trkpt>
            <trkpt lon="99.694083" lat="13.177161">
                <ele>78.970000</ele>
                <time>2015-02-22T03:12:35Z</time>
            </trkpt>
            <trkpt lon="99.694121" lat="13.177164">
                <ele>81.370000</ele>
                <time>2015-02-22T03:13:08Z</time>
            </trkpt>
            <trkpt lon="99.694136" lat="13.177152">
                <ele>80.890000</ele>
                <time>2015-02-22T03:13:31Z</time>
            </trkpt>
            <trkpt lon="99.694107" lat="13.177145">
                <ele>79.930000</ele>
                <time>2015-02-22T03:13:49Z</time>
            </trkpt>
            <trkpt lon="99.694097" lat="13.177154">
                <ele>79.450000</ele>
                <time>2015-02-22T03:14:09Z</time>
            </trkpt>
            <trkpt lon="99.694094" lat="13.177144">
                <ele>78.000000</ele>
                <time>2015-02-22T03:14:31Z</time>
            </trkpt>
            <trkpt lon="99.694090" lat="13.177131">
                <ele>76.560000</ele>
                <time>2015-02-22T03:14:57Z</time>
            </trkpt>
            <trkpt lon="99.694079" lat="13.177148">
                <ele>76.560000</ele>
                <time>2015-02-22T03:15:19Z</time>
            </trkpt>
            <trkpt lon="99.694068" lat="13.177142">
                <ele>76.560000</ele>
                <time>2015-02-22T03:15:45Z</time>
            </trkpt>
            <trkpt lon="99.694077" lat="13.177128">
                <ele>77.520000</ele>
                <time>2015-02-22T03:16:13Z</time>
            </trkpt>
            <trkpt lon="99.694090" lat="13.177143">
                <ele>77.040000</ele>
                <time>2015-02-22T03:16:46Z</time>
            </trkpt>
            <trkpt lon="99.694093" lat="13.177153">
                <ele>77.520000</ele>
                <time>2015-02-22T03:17:12Z</time>
            </trkpt>
            <trkpt lon="99.694078" lat="13.177152">
                <ele>78.970000</ele>
                <time>2015-02-22T03:17:40Z</time>
            </trkpt>
            <trkpt lon="99.694069" lat="13.177140">
                <ele>80.410000</ele>
                <time>2015-02-22T03:18:06Z</time>
            </trkpt>
            <trkpt lon="99.694082" lat="13.177142">
                <ele>80.890000</ele>
                <time>2015-02-22T03:18:13Z</time>
            </trkpt>
            <trkpt lon="99.694135" lat="13.177176">
                <ele>79.450000</ele>
                <time>2015-02-22T03:18:22Z</time>
            </trkpt>
            <trkpt lon="99.694179" lat="13.177310">
                <ele>77.520000</ele>
                <time>2015-02-22T03:18:35Z</time>
            </trkpt>
            <trkpt lon="99.694183" lat="13.177353">
                <ele>76.560000</ele>
                <time>2015-02-22T03:18:47Z</time>
            </trkpt>
            <trkpt lon="99.694189" lat="13.177379">
                <ele>76.560000</ele>
                <time>2015-02-22T03:18:57Z</time>
            </trkpt>
            <trkpt lon="99.694189" lat="13.177408">
                <ele>77.040000</ele>
                <time>2015-02-22T03:19:00Z</time>
            </trkpt>
            <trkpt lon="99.694204" lat="13.177454">
                <ele>76.560000</ele>
                <time>2015-02-22T03:19:04Z</time>
            </trkpt>
            <trkpt lon="99.694243" lat="13.177709">
                <ele>76.080000</ele>
                <time>2015-02-22T03:19:18Z</time>
            </trkpt>
            <trkpt lon="99.694250" lat="13.177943">
                <ele>78.970000</ele>
                <time>2015-02-22T03:19:33Z</time>
            </trkpt>
            <trkpt lon="99.694161" lat="13.178213">
                <ele>80.410000</ele>
                <time>2015-02-22T03:19:48Z</time>
            </trkpt>
            <trkpt lon="99.694116" lat="13.178277">
                <ele>78.970000</ele>
                <time>2015-02-22T03:19:50Z</time>
            </trkpt>
            <trkpt lon="99.694058" lat="13.178362">
                <ele>77.040000</ele>
                <time>2015-02-22T03:19:52Z</time>
            </trkpt>
            <trkpt lon="99.694033" lat="13.178521">
                <ele>75.600000</ele>
                <time>2015-02-22T03:19:56Z</time>
            </trkpt>
            <trkpt lon="99.694076" lat="13.179063">
                <ele>76.080000</ele>
                <time>2015-02-22T03:20:11Z</time>
            </trkpt>
            <trkpt lon="99.694163" lat="13.179628">
                <ele>77.040000</ele>
                <time>2015-02-22T03:20:27Z</time>
            </trkpt>
            <trkpt lon="99.694237" lat="13.180092">
                <ele>79.450000</ele>
                <time>2015-02-22T03:20:42Z</time>
            </trkpt>
            <trkpt lon="99.694240" lat="13.180147">
                <ele>79.930000</ele>
                <time>2015-02-22T03:20:44Z</time>
            </trkpt>
            <trkpt lon="99.694347" lat="13.180179">
                <ele>80.890000</ele>
                <time>2015-02-22T03:20:49Z</time>
            </trkpt>
            <trkpt lon="99.694811" lat="13.180164">
                <ele>84.730000</ele>
                <time>2015-02-22T03:21:07Z</time>
            </trkpt>
            <trkpt lon="99.695161" lat="13.180186">
                <ele>86.180000</ele>
                <time>2015-02-22T03:21:21Z</time>
            </trkpt>
            <trkpt lon="99.695238" lat="13.180171">
                <ele>86.660000</ele>
                <time>2015-02-22T03:21:25Z</time>
            </trkpt>
            <trkpt lon="99.695321" lat="13.180231">
                <ele>87.620000</ele>
                <time>2015-02-22T03:21:30Z</time>
            </trkpt>
            <trkpt lon="99.695769" lat="13.180395">
                <ele>88.580000</ele>
                <time>2015-02-22T03:21:45Z</time>
            </trkpt>
            <trkpt lon="99.695798" lat="13.180394">
                <ele>88.580000</ele>
                <time>2015-02-22T03:21:46Z</time>
            </trkpt>
            <trkpt lon="99.695893" lat="13.180286">
                <ele>88.100000</ele>
                <time>2015-02-22T03:21:51Z</time>
            </trkpt>
            <trkpt lon="99.695924" lat="13.180144">
                <ele>87.620000</ele>
                <time>2015-02-22T03:21:55Z</time>
            </trkpt>
            <trkpt lon="99.696038" lat="13.179916">
                <ele>86.180000</ele>
                <time>2015-02-22T03:22:01Z</time>
            </trkpt>
            <trkpt lon="99.696114" lat="13.179704">
                <ele>85.210000</ele>
                <time>2015-02-22T03:22:06Z</time>
            </trkpt>
            <trkpt lon="99.696258" lat="13.179335">
                <ele>85.210000</ele>
                <time>2015-02-22T03:22:19Z</time>
            </trkpt>
            <trkpt lon="99.696430" lat="13.178853">
                <ele>85.690000</ele>
                <time>2015-02-22T03:22:34Z</time>
            </trkpt>
            <trkpt lon="99.696474" lat="13.178757">
                <ele>85.210000</ele>
                <time>2015-02-22T03:22:37Z</time>
            </trkpt>
            <trkpt lon="99.696782" lat="13.178638">
                <ele>84.730000</ele>
                <time>2015-02-22T03:22:46Z</time>
            </trkpt>
            <trkpt lon="99.697028" lat="13.178572">
                <ele>86.180000</ele>
                <time>2015-02-22T03:22:54Z</time>
            </trkpt>
            <trkpt lon="99.697103" lat="13.178556">
                <ele>87.620000</ele>
                <time>2015-02-22T03:22:59Z</time>
            </trkpt>
            <trkpt lon="99.697197" lat="13.178538">
                <ele>89.060000</ele>
                <time>2015-02-22T03:23:05Z</time>
            </trkpt>
            <trkpt lon="99.697259" lat="13.178584">
                <ele>89.540000</ele>
                <time>2015-02-22T03:23:09Z</time>
            </trkpt>
            <trkpt lon="99.697484" lat="13.179097">
                <ele>90.020000</ele>
                <time>2015-02-22T03:23:27Z</time>
            </trkpt>
            <trkpt lon="99.697594" lat="13.179326">
                <ele>88.100000</ele>
                <time>2015-02-22T03:23:33Z</time>
            </trkpt>
            <trkpt lon="99.697632" lat="13.179500">
                <ele>88.100000</ele>
                <time>2015-02-22T03:23:37Z</time>
            </trkpt>
            <trkpt lon="99.697843" lat="13.180134">
                <ele>91.460000</ele>
                <time>2015-02-22T03:23:54Z</time>
            </trkpt>
            <trkpt lon="99.697970" lat="13.180537">
                <ele>94.830000</ele>
                <time>2015-02-22T03:24:09Z</time>
            </trkpt>
            <trkpt lon="99.698188" lat="13.180907">
                <ele>94.830000</ele>
                <time>2015-02-22T03:24:23Z</time>
            </trkpt>
            <trkpt lon="99.698499" lat="13.181279">
                <ele>95.790000</ele>
                <time>2015-02-22T03:24:39Z</time>
            </trkpt>
            <trkpt lon="99.698516" lat="13.181291">
                <ele>95.790000</ele>
                <time>2015-02-22T03:24:40Z</time>
            </trkpt>
            <trkpt lon="99.698593" lat="13.181279">
                <ele>96.750000</ele>
                <time>2015-02-22T03:24:44Z</time>
            </trkpt>
            <trkpt lon="99.698950" lat="13.181166">
                <ele>100.600000</ele>
                <time>2015-02-22T03:24:59Z</time>
            </trkpt>
            <trkpt lon="99.698999" lat="13.181158">
                <ele>101.080000</ele>
                <time>2015-02-22T03:25:01Z</time>
            </trkpt>
            <trkpt lon="99.699172" lat="13.181263">
                <ele>105.880000</ele>
                <time>2015-02-22T03:25:11Z</time>
            </trkpt>
            <trkpt lon="99.699213" lat="13.181299">
                <ele>106.840000</ele>
                <time>2015-02-22T03:25:13Z</time>
            </trkpt>
            <trkpt lon="99.699274" lat="13.181373">
                <ele>108.770000</ele>
                <time>2015-02-22T03:25:17Z</time>
            </trkpt>
            <trkpt lon="99.699337" lat="13.181449">
                <ele>110.210000</ele>
                <time>2015-02-22T03:25:22Z</time>
            </trkpt>
            <trkpt lon="99.699372" lat="13.181500">
                <ele>112.610000</ele>
                <time>2015-02-22T03:25:27Z</time>
            </trkpt>
            <trkpt lon="99.699639" lat="13.181456">
                <ele>110.690000</ele>
                <time>2015-02-22T03:25:39Z</time>
            </trkpt>
            <trkpt lon="99.700061" lat="13.181338">
                <ele>107.810000</ele>
                <time>2015-02-22T03:25:53Z</time>
            </trkpt>
            <trkpt lon="99.700556" lat="13.181235">
                <ele>105.880000</ele>
                <time>2015-02-22T03:26:09Z</time>
            </trkpt>
            <trkpt lon="99.701051" lat="13.181123">
                <ele>103.960000</ele>
                <time>2015-02-22T03:26:24Z</time>
            </trkpt>
            <trkpt lon="99.701425" lat="13.181079">
                <ele>103.480000</ele>
                <time>2015-02-22T03:26:38Z</time>
            </trkpt>
            <trkpt lon="99.701738" lat="13.181101">
                <ele>104.920000</ele>
                <time>2015-02-22T03:26:52Z</time>
            </trkpt>
            <trkpt lon="99.701985" lat="13.181181">
                <ele>107.810000</ele>
                <time>2015-02-22T03:27:06Z</time>
            </trkpt>
            <trkpt lon="99.702280" lat="13.181215">
                <ele>108.770000</ele>
                <time>2015-02-22T03:27:20Z</time>
            </trkpt>
            <trkpt lon="99.702576" lat="13.181205">
                <ele>110.210000</ele>
                <time>2015-02-22T03:27:35Z</time>
            </trkpt>
            <trkpt lon="99.702820" lat="13.181192">
                <ele>110.210000</ele>
                <time>2015-02-22T03:27:50Z</time>
            </trkpt>
            <trkpt lon="99.702848" lat="13.181192">
                <ele>110.210000</ele>
                <time>2015-02-22T03:27:52Z</time>
            </trkpt>
            <trkpt lon="99.703180" lat="13.181215">
                <ele>111.650000</ele>
                <time>2015-02-22T03:28:09Z</time>
            </trkpt>
            <trkpt lon="99.703282" lat="13.181242">
                <ele>112.130000</ele>
                <time>2015-02-22T03:28:15Z</time>
            </trkpt>
            <trkpt lon="99.703614" lat="13.181231">
                <ele>114.050000</ele>
                <time>2015-02-22T03:28:33Z</time>
            </trkpt>
            <trkpt lon="99.703935" lat="13.181211">
                <ele>115.500000</ele>
                <time>2015-02-22T03:28:49Z</time>
            </trkpt>
            <trkpt lon="99.704244" lat="13.181175">
                <ele>116.460000</ele>
                <time>2015-02-22T03:29:04Z</time>
            </trkpt>
            <trkpt lon="99.704555" lat="13.181155">
                <ele>117.420000</ele>
                <time>2015-02-22T03:29:18Z</time>
            </trkpt>
            <trkpt lon="99.704778" lat="13.181125">
                <ele>117.420000</ele>
                <time>2015-02-22T03:29:32Z</time>
            </trkpt>
            <trkpt lon="99.704874" lat="13.181116">
                <ele>117.900000</ele>
                <time>2015-02-22T03:29:42Z</time>
            </trkpt>
            <trkpt lon="99.705123" lat="13.181093">
                <ele>120.300000</ele>
                <time>2015-02-22T03:29:57Z</time>
            </trkpt>
            <trkpt lon="99.705406" lat="13.181090">
                <ele>122.220000</ele>
                <time>2015-02-22T03:30:12Z</time>
            </trkpt>
            <trkpt lon="99.705616" lat="13.181095">
                <ele>124.630000</ele>
                <time>2015-02-22T03:30:24Z</time>
            </trkpt>
            <trkpt lon="99.705643" lat="13.181094">
                <ele>125.110000</ele>
                <time>2015-02-22T03:30:26Z</time>
            </trkpt>
            <trkpt lon="99.705863" lat="13.181143">
                <ele>126.550000</ele>
                <time>2015-02-22T03:30:41Z</time>
            </trkpt>
            <trkpt lon="99.706010" lat="13.181151">
                <ele>128.470000</ele>
                <time>2015-02-22T03:30:51Z</time>
            </trkpt>
            <trkpt lon="99.706265" lat="13.181113">
                <ele>131.840000</ele>
                <time>2015-02-22T03:31:10Z</time>
            </trkpt>
            <trkpt lon="99.706446" lat="13.181149">
                <ele>133.760000</ele>
                <time>2015-02-22T03:31:23Z</time>
            </trkpt>
            <trkpt lon="99.706652" lat="13.181213">
                <ele>136.160000</ele>
                <time>2015-02-22T03:31:38Z</time>
            </trkpt>
            <trkpt lon="99.706698" lat="13.181223">
                <ele>136.640000</ele>
                <time>2015-02-22T03:31:47Z</time>
            </trkpt>
            <trkpt lon="99.706844" lat="13.181253">
                <ele>140.010000</ele>
                <time>2015-02-22T03:32:04Z</time>
            </trkpt>
            <trkpt lon="99.706969" lat="13.181278">
                <ele>142.890000</ele>
                <time>2015-02-22T03:32:21Z</time>
            </trkpt>
            <trkpt lon="99.707108" lat="13.181288">
                <ele>143.850000</ele>
                <time>2015-02-22T03:32:37Z</time>
            </trkpt>
            <trkpt lon="99.707137" lat="13.181315">
                <ele>143.850000</ele>
                <time>2015-02-22T03:32:51Z</time>
            </trkpt>
            <trkpt lon="99.707271" lat="13.181366">
                <ele>144.820000</ele>
                <time>2015-02-22T03:33:08Z</time>
            </trkpt>
            <trkpt lon="99.707305" lat="13.181399">
                <ele>146.740000</ele>
                <time>2015-02-22T03:33:24Z</time>
            </trkpt>
            <trkpt lon="99.707305" lat="13.181400">
                <ele>147.220000</ele>
                <time>2015-02-22T03:33:42Z</time>
            </trkpt>
            <trkpt lon="99.707313" lat="13.181406">
                <ele>146.740000</ele>
                <time>2015-02-22T03:33:43Z</time>
            </trkpt>
            <trkpt lon="99.707397" lat="13.181551">
                <ele>146.260000</ele>
                <time>2015-02-22T03:33:52Z</time>
            </trkpt>
            <trkpt lon="99.707426" lat="13.181918">
                <ele>146.740000</ele>
                <time>2015-02-22T03:34:07Z</time>
            </trkpt>
            <trkpt lon="99.707467" lat="13.182096">
                <ele>148.660000</ele>
                <time>2015-02-22T03:34:19Z</time>
            </trkpt>
            <trkpt lon="99.707581" lat="13.182147">
                <ele>150.580000</ele>
                <time>2015-02-22T03:34:31Z</time>
            </trkpt>
            <trkpt lon="99.707781" lat="13.182113">
                <ele>153.470000</ele>
                <time>2015-02-22T03:34:48Z</time>
            </trkpt>
            <trkpt lon="99.707988" lat="13.182074">
                <ele>156.350000</ele>
                <time>2015-02-22T03:35:05Z</time>
            </trkpt>
            <trkpt lon="99.708268" lat="13.182066">
                <ele>160.200000</ele>
                <time>2015-02-22T03:35:25Z</time>
            </trkpt>
            <trkpt lon="99.708322" lat="13.182066">
                <ele>161.160000</ele>
                <time>2015-02-22T03:35:29Z</time>
            </trkpt>
            <trkpt lon="99.708450" lat="13.182059">
                <ele>164.520000</ele>
                <time>2015-02-22T03:35:39Z</time>
            </trkpt>
            <trkpt lon="99.708545" lat="13.182053">
                <ele>166.930000</ele>
                <time>2015-02-22T03:35:47Z</time>
            </trkpt>
            <trkpt lon="99.708593" lat="13.182054">
                <ele>168.370000</ele>
                <time>2015-02-22T03:35:51Z</time>
            </trkpt>
            <trkpt lon="99.708755" lat="13.182020">
                <ele>171.250000</ele>
                <time>2015-02-22T03:36:06Z</time>
            </trkpt>
            <trkpt lon="99.708923" lat="13.182082">
                <ele>172.210000</ele>
                <time>2015-02-22T03:36:17Z</time>
            </trkpt>
            <trkpt lon="99.709067" lat="13.182149">
                <ele>172.210000</ele>
                <time>2015-02-22T03:36:27Z</time>
            </trkpt>
            <trkpt lon="99.709156" lat="13.182321">
                <ele>172.210000</ele>
                <time>2015-02-22T03:36:36Z</time>
            </trkpt>
            <trkpt lon="99.709276" lat="13.182339">
                <ele>169.810000</ele>
                <time>2015-02-22T03:36:50Z</time>
            </trkpt>
            <trkpt lon="99.709366" lat="13.182330">
                <ele>171.730000</ele>
                <time>2015-02-22T03:37:02Z</time>
            </trkpt>
            <trkpt lon="99.709451" lat="13.182434">
                <ele>176.540000</ele>
                <time>2015-02-22T03:37:20Z</time>
            </trkpt>
            <trkpt lon="99.709538" lat="13.182553">
                <ele>179.420000</ele>
                <time>2015-02-22T03:37:37Z</time>
            </trkpt>
            <trkpt lon="99.709539" lat="13.182563">
                <ele>179.420000</ele>
                <time>2015-02-22T03:37:38Z</time>
            </trkpt>
            <trkpt lon="99.709487" lat="13.182849">
                <ele>182.310000</ele>
                <time>2015-02-22T03:37:51Z</time>
            </trkpt>
            <trkpt lon="99.709444" lat="13.183163">
                <ele>181.350000</ele>
                <time>2015-02-22T03:38:04Z</time>
            </trkpt>
            <trkpt lon="99.709473" lat="13.183234">
                <ele>180.380000</ele>
                <time>2015-02-22T03:38:08Z</time>
            </trkpt>
            <trkpt lon="99.709412" lat="13.183648">
                <ele>171.730000</ele>
                <time>2015-02-22T03:38:22Z</time>
            </trkpt>
            <trkpt lon="99.709407" lat="13.183709">
                <ele>170.770000</ele>
                <time>2015-02-22T03:38:24Z</time>
            </trkpt>
            <trkpt lon="99.709217" lat="13.184015">
                <ele>164.520000</ele>
                <time>2015-02-22T03:38:36Z</time>
            </trkpt>
            <trkpt lon="99.708863" lat="13.184513">
                <ele>155.390000</ele>
                <time>2015-02-22T03:38:54Z</time>
            </trkpt>
            <trkpt lon="99.708479" lat="13.185026">
                <ele>149.620000</ele>
                <time>2015-02-22T03:39:11Z</time>
            </trkpt>
            <trkpt lon="99.708115" lat="13.185475">
                <ele>144.820000</ele>
                <time>2015-02-22T03:39:28Z</time>
            </trkpt>
            <trkpt lon="99.707785" lat="13.185615">
                <ele>140.010000</ele>
                <time>2015-02-22T03:39:41Z</time>
            </trkpt>
            <trkpt lon="99.707343" lat="13.185796">
                <ele>135.680000</ele>
                <time>2015-02-22T03:39:54Z</time>
            </trkpt>
            <trkpt lon="99.707341" lat="13.185998">
                <ele>136.160000</ele>
                <time>2015-02-22T03:40:02Z</time>
            </trkpt>
            <trkpt lon="99.707436" lat="13.186417">
                <ele>138.090000</ele>
                <time>2015-02-22T03:40:18Z</time>
            </trkpt>
            <trkpt lon="99.707518" lat="13.186727">
                <ele>138.570000</ele>
                <time>2015-02-22T03:40:28Z</time>
            </trkpt>
            <trkpt lon="99.707399" lat="13.186850">
                <ele>138.090000</ele>
                <time>2015-02-22T03:40:34Z</time>
            </trkpt>
            <trkpt lon="99.706948" lat="13.187005">
                <ele>137.130000</ele>
                <time>2015-02-22T03:40:47Z</time>
            </trkpt>
            <trkpt lon="99.706924" lat="13.187437">
                <ele>136.640000</ele>
                <time>2015-02-22T03:40:59Z</time>
            </trkpt>
            <trkpt lon="99.706920" lat="13.188047">
                <ele>135.680000</ele>
                <time>2015-02-22T03:41:15Z</time>
            </trkpt>
            <trkpt lon="99.706903" lat="13.188615">
                <ele>132.800000</ele>
                <time>2015-02-22T03:41:29Z</time>
            </trkpt>
            <trkpt lon="99.706866" lat="13.189221">
                <ele>129.920000</ele>
                <time>2015-02-22T03:41:46Z</time>
            </trkpt>
            <trkpt lon="99.706637" lat="13.189250">
                <ele>130.400000</ele>
                <time>2015-02-22T03:41:54Z</time>
            </trkpt>
            <trkpt lon="99.706102" lat="13.189316">
                <ele>131.360000</ele>
                <time>2015-02-22T03:42:09Z</time>
            </trkpt>
            <trkpt lon="99.705875" lat="13.189276">
                <ele>131.840000</ele>
                <time>2015-02-22T03:42:16Z</time>
            </trkpt>
            <trkpt lon="99.705813" lat="13.189365">
                <ele>131.840000</ele>
                <time>2015-02-22T03:42:20Z</time>
            </trkpt>
            <trkpt lon="99.705814" lat="13.189563">
                <ele>130.400000</ele>
                <time>2015-02-22T03:42:25Z</time>
            </trkpt>
            <trkpt lon="99.705795" lat="13.190394">
                <ele>126.550000</ele>
                <time>2015-02-22T03:42:44Z</time>
            </trkpt>
            <trkpt lon="99.705809" lat="13.191109">
                <ele>123.670000</ele>
                <time>2015-02-22T03:43:00Z</time>
            </trkpt>
            <trkpt lon="99.705809" lat="13.191194">
                <ele>123.670000</ele>
                <time>2015-02-22T03:43:02Z</time>
            </trkpt>
            <trkpt lon="99.705800" lat="13.191872">
                <ele>120.300000</ele>
                <time>2015-02-22T03:43:17Z</time>
            </trkpt>
            <trkpt lon="99.705781" lat="13.192714">
                <ele>117.420000</ele>
                <time>2015-02-22T03:43:33Z</time>
            </trkpt>
            <trkpt lon="99.705748" lat="13.193522">
                <ele>115.500000</ele>
                <time>2015-02-22T03:43:48Z</time>
            </trkpt>
            <trkpt lon="99.705756" lat="13.193789">
                <ele>115.010000</ele>
                <time>2015-02-22T03:43:54Z</time>
            </trkpt>
            <trkpt lon="99.705840" lat="13.194050">
                <ele>114.530000</ele>
                <time>2015-02-22T03:44:00Z</time>
            </trkpt>
            <trkpt lon="99.705908" lat="13.194531">
                <ele>113.570000</ele>
                <time>2015-02-22T03:44:10Z</time>
            </trkpt>
            <trkpt lon="99.705852" lat="13.194709">
                <ele>112.130000</ele>
                <time>2015-02-22T03:44:14Z</time>
            </trkpt>
            <trkpt lon="99.705746" lat="13.194866">
                <ele>111.170000</ele>
                <time>2015-02-22T03:44:18Z</time>
            </trkpt>
            <trkpt lon="99.705636" lat="13.195200">
                <ele>110.210000</ele>
                <time>2015-02-22T03:44:27Z</time>
            </trkpt>
            <trkpt lon="99.705683" lat="13.195596">
                <ele>109.730000</ele>
                <time>2015-02-22T03:44:39Z</time>
            </trkpt>
            <trkpt lon="99.705721" lat="13.195613">
                <ele>109.730000</ele>
                <time>2015-02-22T03:44:41Z</time>
            </trkpt>
            <trkpt lon="99.705746" lat="13.195610">
                <ele>109.730000</ele>
                <time>2015-02-22T03:44:42Z</time>
            </trkpt>
            <trkpt lon="99.706158" lat="13.195475">
                <ele>110.690000</ele>
                <time>2015-02-22T03:44:57Z</time>
            </trkpt>
            <trkpt lon="99.706627" lat="13.195315">
                <ele>111.170000</ele>
                <time>2015-02-22T03:45:12Z</time>
            </trkpt>
            <trkpt lon="99.707305" lat="13.195073">
                <ele>110.690000</ele>
                <time>2015-02-22T03:45:30Z</time>
            </trkpt>
            <trkpt lon="99.708000" lat="13.194880">
                <ele>110.690000</ele>
                <time>2015-02-22T03:45:47Z</time>
            </trkpt>
            <trkpt lon="99.708365" lat="13.194873">
                <ele>113.090000</ele>
                <time>2015-02-22T03:46:01Z</time>
            </trkpt>
            <trkpt lon="99.708989" lat="13.194912">
                <ele>114.530000</ele>
                <time>2015-02-22T03:46:21Z</time>
            </trkpt>
            <trkpt lon="99.709748" lat="13.194958">
                <ele>116.460000</ele>
                <time>2015-02-22T03:46:41Z</time>
            </trkpt>
            <trkpt lon="99.710414" lat="13.194997">
                <ele>116.940000</ele>
                <time>2015-02-22T03:46:58Z</time>
            </trkpt>
            <trkpt lon="99.710960" lat="13.195156">
                <ele>116.460000</ele>
                <time>2015-02-22T03:47:11Z</time>
            </trkpt>
            <trkpt lon="99.711666" lat="13.195573">
                <ele>115.500000</ele>
                <time>2015-02-22T03:47:28Z</time>
            </trkpt>
            <trkpt lon="99.712233" lat="13.195849">
                <ele>115.980000</ele>
                <time>2015-02-22T03:47:42Z</time>
            </trkpt>
            <trkpt lon="99.712889" lat="13.195829">
                <ele>115.500000</ele>
                <time>2015-02-22T03:47:57Z</time>
            </trkpt>
            <trkpt lon="99.713096" lat="13.195822">
                <ele>115.500000</ele>
                <time>2015-02-22T03:48:05Z</time>
            </trkpt>
            <trkpt lon="99.713097" lat="13.195809">
                <ele>115.010000</ele>
                <time>2015-02-22T03:48:06Z</time>
            </trkpt>
            <trkpt lon="99.713038" lat="13.195812">
                <ele>115.010000</ele>
                <time>2015-02-22T03:48:10Z</time>
            </trkpt>
            <trkpt lon="99.713015" lat="13.195819">
                <ele>115.010000</ele>
                <time>2015-02-22T03:48:11Z</time>
            </trkpt>
            <trkpt lon="99.712551" lat="13.195849">
                <ele>115.010000</ele>
                <time>2015-02-22T03:48:24Z</time>
            </trkpt>
            <trkpt lon="99.712019" lat="13.195765">
                <ele>115.010000</ele>
                <time>2015-02-22T03:48:38Z</time>
            </trkpt>
            <trkpt lon="99.711802" lat="13.195678">
                <ele>114.530000</ele>
                <time>2015-02-22T03:48:46Z</time>
            </trkpt>
            <trkpt lon="99.711771" lat="13.195732">
                <ele>114.050000</ele>
                <time>2015-02-22T03:48:50Z</time>
            </trkpt>
            <trkpt lon="99.711742" lat="13.195913">
                <ele>114.530000</ele>
                <time>2015-02-22T03:48:59Z</time>
            </trkpt>
            <trkpt lon="99.711774" lat="13.196038">
                <ele>114.050000</ele>
                <time>2015-02-22T03:49:07Z</time>
            </trkpt>
            <trkpt lon="99.711717" lat="13.196481">
                <ele>113.570000</ele>
                <time>2015-02-22T03:49:22Z</time>
            </trkpt>
            <trkpt lon="99.711690" lat="13.197070">
                <ele>112.130000</ele>
                <time>2015-02-22T03:49:37Z</time>
            </trkpt>
            <trkpt lon="99.711818" lat="13.197207">
                <ele>112.130000</ele>
                <time>2015-02-22T03:49:43Z</time>
            </trkpt>
            <trkpt lon="99.711912" lat="13.197461">
                <ele>113.090000</ele>
                <time>2015-02-22T03:49:52Z</time>
            </trkpt>
            <trkpt lon="99.711925" lat="13.197677">
                <ele>111.170000</ele>
                <time>2015-02-22T03:50:02Z</time>
            </trkpt>
            <trkpt lon="99.711950" lat="13.197686">
                <ele>111.170000</ele>
                <time>2015-02-22T03:50:03Z</time>
            </trkpt>
            <trkpt lon="99.712238" lat="13.197771">
                <ele>110.210000</ele>
                <time>2015-02-22T03:50:12Z</time>
            </trkpt>
            <trkpt lon="99.712139" lat="13.198087">
                <ele>108.290000</ele>
                <time>2015-02-22T03:50:23Z</time>
            </trkpt>
            <trkpt lon="99.712114" lat="13.198157">
                <ele>107.810000</ele>
                <time>2015-02-22T03:50:25Z</time>
            </trkpt>
            <trkpt lon="99.712078" lat="13.198588">
                <ele>106.840000</ele>
                <time>2015-02-22T03:50:37Z</time>
            </trkpt>
            <trkpt lon="99.712281" lat="13.198939">
                <ele>107.320000</ele>
                <time>2015-02-22T03:50:49Z</time>
            </trkpt>
            <trkpt lon="99.712322" lat="13.199195">
                <ele>105.400000</ele>
                <time>2015-02-22T03:50:54Z</time>
            </trkpt>
            <trkpt lon="99.712482" lat="13.199431">
                <ele>104.440000</ele>
                <time>2015-02-22T03:51:01Z</time>
            </trkpt>
            <trkpt lon="99.712616" lat="13.199578">
                <ele>103.960000</ele>
                <time>2015-02-22T03:51:06Z</time>
            </trkpt>
            <trkpt lon="99.712658" lat="13.199706">
                <ele>103.480000</ele>
                <time>2015-02-22T03:51:16Z</time>
            </trkpt>
            <trkpt lon="99.712665" lat="13.199741">
                <ele>103.000000</ele>
                <time>2015-02-22T03:51:31Z</time>
            </trkpt>
            <trkpt lon="99.712675" lat="13.199756">
                <ele>103.000000</ele>
                <time>2015-02-22T03:51:45Z</time>
            </trkpt>
            <trkpt lon="99.712695" lat="13.199802">
                <ele>103.000000</ele>
                <time>2015-02-22T03:52:02Z</time>
            </trkpt>
            <trkpt lon="99.712718" lat="13.199832">
                <ele>102.040000</ele>
                <time>2015-02-22T03:52:18Z</time>
            </trkpt>
            <trkpt lon="99.712770" lat="13.199873">
                <ele>103.480000</ele>
                <time>2015-02-22T03:52:32Z</time>
            </trkpt>
            <trkpt lon="99.712773" lat="13.199875">
                <ele>103.480000</ele>
                <time>2015-02-22T03:52:35Z</time>
            </trkpt>
            <trkpt lon="99.712929" lat="13.199864">
                <ele>105.400000</ele>
                <time>2015-02-22T03:52:45Z</time>
            </trkpt>
            <trkpt lon="99.713084" lat="13.200129">
                <ele>108.290000</ele>
                <time>2015-02-22T03:53:01Z</time>
            </trkpt>
            <trkpt lon="99.713278" lat="13.200351">
                <ele>110.690000</ele>
                <time>2015-02-22T03:53:15Z</time>
            </trkpt>
            <trkpt lon="99.713456" lat="13.200471">
                <ele>113.090000</ele>
                <time>2015-02-22T03:53:29Z</time>
            </trkpt>
            <trkpt lon="99.713561" lat="13.200591">
                <ele>114.050000</ele>
                <time>2015-02-22T03:53:41Z</time>
            </trkpt>
            <trkpt lon="99.713589" lat="13.200677">
                <ele>114.530000</ele>
                <time>2015-02-22T03:53:47Z</time>
            </trkpt>
            <trkpt lon="99.713621" lat="13.200732">
                <ele>115.010000</ele>
                <time>2015-02-22T03:54:00Z</time>
            </trkpt>
            <trkpt lon="99.713669" lat="13.200867">
                <ele>118.380000</ele>
                <time>2015-02-22T03:54:17Z</time>
            </trkpt>
            <trkpt lon="99.713752" lat="13.201003">
                <ele>119.820000</ele>
                <time>2015-02-22T03:54:35Z</time>
            </trkpt>
            <trkpt lon="99.713827" lat="13.201099">
                <ele>120.780000</ele>
                <time>2015-02-22T03:54:51Z</time>
            </trkpt>
            <trkpt lon="99.713873" lat="13.201198">
                <ele>119.820000</ele>
                <time>2015-02-22T03:54:57Z</time>
            </trkpt>
            <trkpt lon="99.713853" lat="13.201272">
                <ele>118.380000</ele>
                <time>2015-02-22T03:55:01Z</time>
            </trkpt>
            <trkpt lon="99.713615" lat="13.201653">
                <ele>118.860000</ele>
                <time>2015-02-22T03:55:13Z</time>
            </trkpt>
            <trkpt lon="99.713334" lat="13.201945">
                <ele>120.780000</ele>
                <time>2015-02-22T03:55:27Z</time>
            </trkpt>
            <trkpt lon="99.713023" lat="13.202263">
                <ele>121.740000</ele>
                <time>2015-02-22T03:55:43Z</time>
            </trkpt>
            <trkpt lon="99.712959" lat="13.202680">
                <ele>120.780000</ele>
                <time>2015-02-22T03:55:56Z</time>
            </trkpt>
            <trkpt lon="99.712936" lat="13.202856">
                <ele>122.710000</ele>
                <time>2015-02-22T03:56:06Z</time>
            </trkpt>
            <trkpt lon="99.712881" lat="13.203133">
                <ele>122.710000</ele>
                <time>2015-02-22T03:56:21Z</time>
            </trkpt>
            <trkpt lon="99.712625" lat="13.203180">
                <ele>123.670000</ele>
                <time>2015-02-22T03:56:33Z</time>
            </trkpt>
            <trkpt lon="99.712228" lat="13.203334">
                <ele>124.150000</ele>
                <time>2015-02-22T03:56:48Z</time>
            </trkpt>
            <trkpt lon="99.711874" lat="13.203704">
                <ele>123.670000</ele>
                <time>2015-02-22T03:57:02Z</time>
            </trkpt>
            <trkpt lon="99.711721" lat="13.204128">
                <ele>124.150000</ele>
                <time>2015-02-22T03:57:15Z</time>
            </trkpt>
            <trkpt lon="99.711449" lat="13.204221">
                <ele>122.710000</ele>
                <time>2015-02-22T03:57:25Z</time>
            </trkpt>
            <trkpt lon="99.710787" lat="13.204213">
                <ele>119.340000</ele>
                <time>2015-02-22T03:57:41Z</time>
            </trkpt>
            <trkpt lon="99.709939" lat="13.204181">
                <ele>116.940000</ele>
                <time>2015-02-22T03:57:56Z</time>
            </trkpt>
            <trkpt lon="99.709608" lat="13.204171">
                <ele>115.980000</ele>
                <time>2015-02-22T03:58:03Z</time>
            </trkpt>
            <trkpt lon="99.709526" lat="13.204343">
                <ele>115.010000</ele>
                <time>2015-02-22T03:58:09Z</time>
            </trkpt>
            <trkpt lon="99.709524" lat="13.205103">
                <ele>114.050000</ele>
                <time>2015-02-22T03:58:27Z</time>
            </trkpt>
            <trkpt lon="99.709520" lat="13.205785">
                <ele>115.500000</ele>
                <time>2015-02-22T03:58:43Z</time>
            </trkpt>
            <trkpt lon="99.709511" lat="13.206329">
                <ele>115.500000</ele>
                <time>2015-02-22T03:58:56Z</time>
            </trkpt>
            <trkpt lon="99.709490" lat="13.207161">
                <ele>115.010000</ele>
                <time>2015-02-22T03:59:13Z</time>
            </trkpt>
            <trkpt lon="99.709481" lat="13.207306">
                <ele>114.530000</ele>
                <time>2015-02-22T03:59:16Z</time>
            </trkpt>
            <trkpt lon="99.709486" lat="13.207744">
                <ele>113.570000</ele>
                <time>2015-02-22T03:59:27Z</time>
            </trkpt>
            <trkpt lon="99.709484" lat="13.208289">
                <ele>112.130000</ele>
                <time>2015-02-22T03:59:42Z</time>
            </trkpt>
            <trkpt lon="99.709452" lat="13.208819">
                <ele>110.690000</ele>
                <time>2015-02-22T03:59:55Z</time>
            </trkpt>
            <trkpt lon="99.709449" lat="13.209083">
                <ele>110.690000</ele>
                <time>2015-02-22T04:00:01Z</time>
            </trkpt>
            <trkpt lon="99.709542" lat="13.209156">
                <ele>110.210000</ele>
                <time>2015-02-22T04:00:05Z</time>
            </trkpt>
            <trkpt lon="99.710099" lat="13.209169">
                <ele>110.690000</ele>
                <time>2015-02-22T04:00:20Z</time>
            </trkpt>
            <trkpt lon="99.710865" lat="13.209192">
                <ele>111.650000</ele>
                <time>2015-02-22T04:00:37Z</time>
            </trkpt>
            <trkpt lon="99.711417" lat="13.209212">
                <ele>114.050000</ele>
                <time>2015-02-22T04:00:54Z</time>
            </trkpt>
            <trkpt lon="99.711512" lat="13.209209">
                <ele>115.500000</ele>
                <time>2015-02-22T04:00:59Z</time>
            </trkpt>
            <trkpt lon="99.711603" lat="13.209219">
                <ele>117.900000</ele>
                <time>2015-02-22T04:01:05Z</time>
            </trkpt>
            <trkpt lon="99.711657" lat="13.209523">
                <ele>116.940000</ele>
                <time>2015-02-22T04:01:16Z</time>
            </trkpt>
            <trkpt lon="99.711646" lat="13.210120">
                <ele>115.010000</ele>
                <time>2015-02-22T04:01:31Z</time>
            </trkpt>
            <trkpt lon="99.711616" lat="13.210858">
                <ele>112.130000</ele>
                <time>2015-02-22T04:01:46Z</time>
            </trkpt>
            <trkpt lon="99.711609" lat="13.211416">
                <ele>113.570000</ele>
                <time>2015-02-22T04:02:00Z</time>
            </trkpt>
            <trkpt lon="99.711617" lat="13.212014">
                <ele>114.050000</ele>
                <time>2015-02-22T04:02:15Z</time>
            </trkpt>
            <trkpt lon="99.711607" lat="13.212504">
                <ele>114.530000</ele>
                <time>2015-02-22T04:02:28Z</time>
            </trkpt>
            <trkpt lon="99.711597" lat="13.212603">
                <ele>114.050000</ele>
                <time>2015-02-22T04:02:30Z</time>
            </trkpt>
            <trkpt lon="99.711583" lat="13.212894">
                <ele>114.050000</ele>
                <time>2015-02-22T04:02:37Z</time>
            </trkpt>
            <trkpt lon="99.711484" lat="13.212992">
                <ele>114.530000</ele>
                <time>2015-02-22T04:02:41Z</time>
            </trkpt>
            <trkpt lon="99.710989" lat="13.213200">
                <ele>115.980000</ele>
                <time>2015-02-22T04:02:57Z</time>
            </trkpt>
            <trkpt lon="99.710425" lat="13.213459">
                <ele>115.980000</ele>
                <time>2015-02-22T04:03:12Z</time>
            </trkpt>
            <trkpt lon="99.710296" lat="13.213517">
                <ele>115.500000</ele>
                <time>2015-02-22T04:03:15Z</time>
            </trkpt>
            <trkpt lon="99.710203" lat="13.213544">
                <ele>115.010000</ele>
                <time>2015-02-22T04:03:17Z</time>
            </trkpt>
            <trkpt lon="99.709409" lat="13.213860">
                <ele>112.130000</ele>
                <time>2015-02-22T04:03:33Z</time>
            </trkpt>
            <trkpt lon="99.708719" lat="13.214167">
                <ele>112.610000</ele>
                <time>2015-02-22T04:03:48Z</time>
            </trkpt>
            <trkpt lon="99.708343" lat="13.214310">
                <ele>113.570000</ele>
                <time>2015-02-22T04:04:00Z</time>
            </trkpt>
            <trkpt lon="99.708250" lat="13.214386">
                <ele>114.050000</ele>
                <time>2015-02-22T04:04:06Z</time>
            </trkpt>
            <trkpt lon="99.708249" lat="13.214402">
                <ele>114.050000</ele>
                <time>2015-02-22T04:04:07Z</time>
            </trkpt>
            <trkpt lon="99.708253" lat="13.214423">
                <ele>113.570000</ele>
                <time>2015-02-22T04:04:08Z</time>
            </trkpt>
            <trkpt lon="99.708262" lat="13.214444">
                <ele>113.570000</ele>
                <time>2015-02-22T04:04:09Z</time>
            </trkpt>
            <trkpt lon="99.708272" lat="13.214464">
                <ele>113.570000</ele>
                <time>2015-02-22T04:04:10Z</time>
            </trkpt>
            <trkpt lon="99.708282" lat="13.214484">
                <ele>114.050000</ele>
                <time>2015-02-22T04:04:11Z</time>
            </trkpt>
            <trkpt lon="99.708354" lat="13.214600">
                <ele>114.050000</ele>
                <time>2015-02-22T04:04:25Z</time>
            </trkpt>
            <trkpt lon="99.708374" lat="13.214605">
                <ele>114.530000</ele>
                <time>2015-02-22T04:04:36Z</time>
            </trkpt>
            <trkpt lon="99.708386" lat="13.214611">
                <ele>116.940000</ele>
                <time>2015-02-22T04:05:12Z</time>
            </trkpt>
            <trkpt lon="99.708394" lat="13.214585">
                <ele>114.530000</ele>
                <time>2015-02-22T04:05:50Z</time>
            </trkpt>
            <trkpt lon="99.708397" lat="13.214591">
                <ele>115.980000</ele>
                <time>2015-02-22T04:06:32Z</time>
            </trkpt>
            <trkpt lon="99.708386" lat="13.214582">
                <ele>116.460000</ele>
                <time>2015-02-22T04:07:07Z</time>
            </trkpt>
            <trkpt lon="99.708376" lat="13.214591">
                <ele>116.460000</ele>
                <time>2015-02-22T04:07:43Z</time>
            </trkpt>
            <trkpt lon="99.708372" lat="13.214582">
                <ele>116.460000</ele>
                <time>2015-02-22T04:08:18Z</time>
            </trkpt>
            <trkpt lon="99.708383" lat="13.214582">
                <ele>115.980000</ele>
                <time>2015-02-22T04:08:52Z</time>
            </trkpt>
            <trkpt lon="99.708373" lat="13.214582">
                <ele>118.380000</ele>
                <time>2015-02-22T04:09:38Z</time>
            </trkpt>
            <trkpt lon="99.708379" lat="13.214546">
                <ele>121.740000</ele>
                <time>2015-02-22T04:10:25Z</time>
            </trkpt>
            <trkpt lon="99.708388" lat="13.214560">
                <ele>122.220000</ele>
                <time>2015-02-22T04:11:16Z</time>
            </trkpt>
            <trkpt lon="99.708373" lat="13.214581">
                <ele>120.780000</ele>
                <time>2015-02-22T04:12:06Z</time>
            </trkpt>
            <trkpt lon="99.708374" lat="13.214594">
                <ele>117.900000</ele>
                <time>2015-02-22T04:12:47Z</time>
            </trkpt>
            <trkpt lon="99.708375" lat="13.214583">
                <ele>115.010000</ele>
                <time>2015-02-22T04:13:28Z</time>
            </trkpt>
            <trkpt lon="99.708369" lat="13.214576">
                <ele>117.420000</ele>
                <time>2015-02-22T04:14:14Z</time>
            </trkpt>
            <trkpt lon="99.708384" lat="13.214594">
                <ele>118.380000</ele>
                <time>2015-02-22T04:14:57Z</time>
            </trkpt>
            <trkpt lon="99.708370" lat="13.214583">
                <ele>119.820000</ele>
                <time>2015-02-22T04:15:31Z</time>
            </trkpt>
            <trkpt lon="99.708344" lat="13.214621">
                <ele>121.260000</ele>
                <time>2015-02-22T04:16:00Z</time>
            </trkpt>
            <trkpt lon="99.708354" lat="13.214628">
                <ele>119.820000</ele>
                <time>2015-02-22T04:16:20Z</time>
            </trkpt>
            <trkpt lon="99.708355" lat="13.214637">
                <ele>119.340000</ele>
                <time>2015-02-22T04:16:45Z</time>
            </trkpt>
            <trkpt lon="99.708361" lat="13.214632">
                <ele>118.860000</ele>
                <time>2015-02-22T04:17:09Z</time>
            </trkpt>
            <trkpt lon="99.708362" lat="13.214638">
                <ele>118.860000</ele>
                <time>2015-02-22T04:17:28Z</time>
            </trkpt>
            <trkpt lon="99.708368" lat="13.214649">
                <ele>117.900000</ele>
                <time>2015-02-22T04:17:59Z</time>
            </trkpt>
            <trkpt lon="99.708365" lat="13.214652">
                <ele>118.860000</ele>
                <time>2015-02-22T04:18:20Z</time>
            </trkpt>
            <trkpt lon="99.708356" lat="13.214639">
                <ele>116.940000</ele>
                <time>2015-02-22T04:18:42Z</time>
            </trkpt>
            <trkpt lon="99.708317" lat="13.214593">
                <ele>115.980000</ele>
                <time>2015-02-22T04:18:57Z</time>
            </trkpt>
            <trkpt lon="99.708299" lat="13.214557">
                <ele>115.500000</ele>
                <time>2015-02-22T04:19:04Z</time>
            </trkpt>
            <trkpt lon="99.708105" lat="13.214238">
                <ele>115.980000</ele>
                <time>2015-02-22T04:19:17Z</time>
            </trkpt>
            <trkpt lon="99.707651" lat="13.213610">
                <ele>114.050000</ele>
                <time>2015-02-22T04:19:34Z</time>
            </trkpt>
            <trkpt lon="99.706961" lat="13.213118">
                <ele>110.210000</ele>
                <time>2015-02-22T04:19:51Z</time>
            </trkpt>
            <trkpt lon="99.706096" lat="13.212741">
                <ele>106.840000</ele>
                <time>2015-02-22T04:20:08Z</time>
            </trkpt>
            <trkpt lon="99.705047" lat="13.212255">
                <ele>104.440000</ele>
                <time>2015-02-22T04:20:26Z</time>
            </trkpt>
            <trkpt lon="99.704128" lat="13.211844">
                <ele>102.040000</ele>
                <time>2015-02-22T04:20:42Z</time>
            </trkpt>
            <trkpt lon="99.703144" lat="13.211393">
                <ele>102.040000</ele>
                <time>2015-02-22T04:21:00Z</time>
            </trkpt>
            <trkpt lon="99.702273" lat="13.210997">
                <ele>102.040000</ele>
                <time>2015-02-22T04:21:17Z</time>
            </trkpt>
            <trkpt lon="99.701251" lat="13.210534">
                <ele>101.080000</ele>
                <time>2015-02-22T04:21:37Z</time>
            </trkpt>
            <trkpt lon="99.700927" lat="13.210405">
                <ele>101.080000</ele>
                <time>2015-02-22T04:21:44Z</time>
            </trkpt>
            <trkpt lon="99.700875" lat="13.210392">
                <ele>101.080000</ele>
                <time>2015-02-22T04:21:45Z</time>
            </trkpt>
            <trkpt lon="99.700278" lat="13.210164">
                <ele>101.080000</ele>
                <time>2015-02-22T04:21:59Z</time>
            </trkpt>
            <trkpt lon="99.700258" lat="13.210306">
                <ele>102.040000</ele>
                <time>2015-02-22T04:22:04Z</time>
            </trkpt>
            <trkpt lon="99.700322" lat="13.210462">
                <ele>101.560000</ele>
                <time>2015-02-22T04:22:08Z</time>
            </trkpt>
            <trkpt lon="99.700326" lat="13.210635">
                <ele>102.040000</ele>
                <time>2015-02-22T04:22:12Z</time>
            </trkpt>
            <trkpt lon="99.700173" lat="13.211469">
                <ele>103.000000</ele>
                <time>2015-02-22T04:22:31Z</time>
            </trkpt>
            <trkpt lon="99.700217" lat="13.212248">
                <ele>102.520000</ele>
                <time>2015-02-22T04:22:47Z</time>
            </trkpt>
            <trkpt lon="99.700244" lat="13.212618">
                <ele>102.040000</ele>
                <time>2015-02-22T04:22:55Z</time>
            </trkpt>
            <trkpt lon="99.700248" lat="13.212746">
                <ele>102.040000</ele>
                <time>2015-02-22T04:22:58Z</time>
            </trkpt>
            <trkpt lon="99.699918" lat="13.212874">
                <ele>101.560000</ele>
                <time>2015-02-22T04:23:07Z</time>
            </trkpt>
            <trkpt lon="99.699405" lat="13.213139">
                <ele>102.040000</ele>
                <time>2015-02-22T04:23:21Z</time>
            </trkpt>
            <trkpt lon="99.698988" lat="13.213169">
                <ele>104.440000</ele>
                <time>2015-02-22T04:23:33Z</time>
            </trkpt>
            <trkpt lon="99.698593" lat="13.213120">
                <ele>104.920000</ele>
                <time>2015-02-22T04:23:45Z</time>
            </trkpt>
            <trkpt lon="99.698294" lat="13.213099">
                <ele>104.920000</ele>
                <time>2015-02-22T04:23:51Z</time>
            </trkpt>
            <trkpt lon="99.698087" lat="13.213166">
                <ele>104.920000</ele>
                <time>2015-02-22T04:23:56Z</time>
            </trkpt>
            <trkpt lon="99.697658" lat="13.213600">
                <ele>104.920000</ele>
                <time>2015-02-22T04:24:11Z</time>
            </trkpt>
            <trkpt lon="99.697471" lat="13.214078">
                <ele>105.400000</ele>
                <time>2015-02-22T04:24:26Z</time>
            </trkpt>
            <trkpt lon="99.697337" lat="13.214403">
                <ele>106.840000</ele>
                <time>2015-02-22T04:24:40Z</time>
            </trkpt>
            <trkpt lon="99.697165" lat="13.214760">
                <ele>109.730000</ele>
                <time>2015-02-22T04:24:55Z</time>
            </trkpt>
            <trkpt lon="99.697171" lat="13.215279">
                <ele>112.610000</ele>
                <time>2015-02-22T04:25:13Z</time>
            </trkpt>
            <trkpt lon="99.697196" lat="13.215849">
                <ele>114.050000</ele>
                <time>2015-02-22T04:25:31Z</time>
            </trkpt>
            <trkpt lon="99.697168" lat="13.216246">
                <ele>113.570000</ele>
                <time>2015-02-22T04:25:42Z</time>
            </trkpt>
            <trkpt lon="99.697018" lat="13.216289">
                <ele>114.530000</ele>
                <time>2015-02-22T04:25:48Z</time>
            </trkpt>
            <trkpt lon="99.696597" lat="13.216317">
                <ele>116.460000</ele>
                <time>2015-02-22T04:26:04Z</time>
            </trkpt>
            <trkpt lon="99.696187" lat="13.216356">
                <ele>117.420000</ele>
                <time>2015-02-22T04:26:20Z</time>
            </trkpt>
            <trkpt lon="99.695753" lat="13.216405">
                <ele>115.980000</ele>
                <time>2015-02-22T04:26:33Z</time>
            </trkpt>
            <trkpt lon="99.695250" lat="13.216454">
                <ele>113.570000</ele>
                <time>2015-02-22T04:26:49Z</time>
            </trkpt>
            <trkpt lon="99.694965" lat="13.216487">
                <ele>112.130000</ele>
                <time>2015-02-22T04:26:58Z</time>
            </trkpt>
            <trkpt lon="99.694554" lat="13.216539">
                <ele>111.650000</ele>
                <time>2015-02-22T04:27:10Z</time>
            </trkpt>
            <trkpt lon="99.694181" lat="13.216585">
                <ele>109.730000</ele>
                <time>2015-02-22T04:27:22Z</time>
            </trkpt>
            <trkpt lon="99.693831" lat="13.216624">
                <ele>108.770000</ele>
                <time>2015-02-22T04:27:34Z</time>
            </trkpt>
            <trkpt lon="99.693552" lat="13.216727">
                <ele>106.360000</ele>
                <time>2015-02-22T04:27:46Z</time>
            </trkpt>
            <trkpt lon="99.693528" lat="13.216791">
                <ele>106.360000</ele>
                <time>2015-02-22T04:27:56Z</time>
            </trkpt>
            <trkpt lon="99.693448" lat="13.216807">
                <ele>105.880000</ele>
                <time>2015-02-22T04:28:12Z</time>
            </trkpt>
            <trkpt lon="99.693450" lat="13.216809">
                <ele>106.360000</ele>
                <time>2015-02-22T04:28:34Z</time>
            </trkpt>
            <trkpt lon="99.693452" lat="13.216806">
                <ele>106.360000</ele>
                <time>2015-02-22T04:29:02Z</time>
            </trkpt>
            <trkpt lon="99.693451" lat="13.216809">
                <ele>106.360000</ele>
                <time>2015-02-22T04:29:27Z</time>
            </trkpt>
            <trkpt lon="99.693451" lat="13.216808">
                <ele>106.360000</ele>
                <time>2015-02-22T04:29:57Z</time>
            </trkpt>
            <trkpt lon="99.693395" lat="13.216828">
                <ele>106.360000</ele>
                <time>2015-02-22T04:30:10Z</time>
            </trkpt>
            <trkpt lon="99.693265" lat="13.216888">
                <ele>105.400000</ele>
                <time>2015-02-22T04:30:26Z</time>
            </trkpt>
            <trkpt lon="99.693124" lat="13.216980">
                <ele>106.360000</ele>
                <time>2015-02-22T04:30:43Z</time>
            </trkpt>
            <trkpt lon="99.692971" lat="13.217041">
                <ele>106.840000</ele>
                <time>2015-02-22T04:31:00Z</time>
            </trkpt>
            <trkpt lon="99.692932" lat="13.217037">
                <ele>107.320000</ele>
                <time>2015-02-22T04:31:05Z</time>
            </trkpt>
            <trkpt lon="99.692845" lat="13.217004">
                <ele>107.810000</ele>
                <time>2015-02-22T04:31:20Z</time>
            </trkpt>
            <trkpt lon="99.692836" lat="13.216943">
                <ele>107.810000</ele>
                <time>2015-02-22T04:31:35Z</time>
            </trkpt>
            <trkpt lon="99.692835" lat="13.216942">
                <ele>107.810000</ele>
                <time>2015-02-22T04:31:55Z</time>
            </trkpt>
            <trkpt lon="99.692840" lat="13.216930">
                <ele>107.320000</ele>
                <time>2015-02-22T04:32:05Z</time>
            </trkpt>
            <trkpt lon="99.692932" lat="13.216616">
                <ele>106.840000</ele>
                <time>2015-02-22T04:32:17Z</time>
            </trkpt>
            <trkpt lon="99.693020" lat="13.216303">
                <ele>109.250000</ele>
                <time>2015-02-22T04:32:30Z</time>
            </trkpt>
            <trkpt lon="99.693047" lat="13.216032">
                <ele>109.250000</ele>
                <time>2015-02-22T04:32:40Z</time>
            </trkpt>
            <trkpt lon="99.692678" lat="13.215910">
                <ele>109.250000</ele>
                <time>2015-02-22T04:32:53Z</time>
            </trkpt>
            <trkpt lon="99.692430" lat="13.215856">
                <ele>109.250000</ele>
                <time>2015-02-22T04:33:05Z</time>
            </trkpt>
            <trkpt lon="99.692388" lat="13.215872">
                <ele>109.730000</ele>
                <time>2015-02-22T04:33:07Z</time>
            </trkpt>
            <trkpt lon="99.692318" lat="13.216037">
                <ele>109.730000</ele>
                <time>2015-02-22T04:33:14Z</time>
            </trkpt>
            <trkpt lon="99.692309" lat="13.216297">
                <ele>107.810000</ele>
                <time>2015-02-22T04:33:22Z</time>
            </trkpt>
            <trkpt lon="99.692165" lat="13.216323">
                <ele>107.810000</ele>
                <time>2015-02-22T04:33:29Z</time>
            </trkpt>
            <trkpt lon="99.692007" lat="13.216140">
                <ele>107.810000</ele>
                <time>2015-02-22T04:33:37Z</time>
            </trkpt>
            <trkpt lon="99.691901" lat="13.216070">
                <ele>108.290000</ele>
                <time>2015-02-22T04:33:41Z</time>
            </trkpt>
            <trkpt lon="99.691598" lat="13.215813">
                <ele>110.210000</ele>
                <time>2015-02-22T04:33:53Z</time>
            </trkpt>
            <trkpt lon="99.691576" lat="13.215787">
                <ele>110.210000</ele>
                <time>2015-02-22T04:33:54Z</time>
            </trkpt>
            <trkpt lon="99.691268" lat="13.215708">
                <ele>109.730000</ele>
                <time>2015-02-22T04:34:05Z</time>
            </trkpt>
            <trkpt lon="99.691074" lat="13.215580">
                <ele>112.610000</ele>
                <time>2015-02-22T04:34:16Z</time>
            </trkpt>
            <trkpt lon="99.691056" lat="13.215567">
                <ele>112.610000</ele>
                <time>2015-02-22T04:34:17Z</time>
            </trkpt>
            <trkpt lon="99.691013" lat="13.215479">
                <ele>114.050000</ele>
                <time>2015-02-22T04:34:22Z</time>
            </trkpt>
            <trkpt lon="99.690935" lat="13.215372">
                <ele>114.050000</ele>
                <time>2015-02-22T04:34:28Z</time>
            </trkpt>
            <trkpt lon="99.690854" lat="13.215291">
                <ele>114.050000</ele>
                <time>2015-02-22T04:34:33Z</time>
            </trkpt>
            <trkpt lon="99.690637" lat="13.215223">
                <ele>111.650000</ele>
                <time>2015-02-22T04:34:45Z</time>
            </trkpt>
            <trkpt lon="99.690563" lat="13.215165">
                <ele>112.130000</ele>
                <time>2015-02-22T04:34:57Z</time>
            </trkpt>
            <trkpt lon="99.690521" lat="13.215135">
                <ele>113.090000</ele>
                <time>2015-02-22T04:35:15Z</time>
            </trkpt>
            <trkpt lon="99.690464" lat="13.215057">
                <ele>115.010000</ele>
                <time>2015-02-22T04:35:28Z</time>
            </trkpt>
            <trkpt lon="99.690427" lat="13.215016">
                <ele>116.460000</ele>
                <time>2015-02-22T04:35:40Z</time>
            </trkpt>
            <trkpt lon="99.690390" lat="13.214796">
                <ele>119.820000</ele>
                <time>2015-02-22T04:35:55Z</time>
            </trkpt>
            <trkpt lon="99.690373" lat="13.214742">
                <ele>120.300000</ele>
                <time>2015-02-22T04:35:59Z</time>
            </trkpt>
            <trkpt lon="99.690327" lat="13.214686">
                <ele>121.260000</ele>
                <time>2015-02-22T04:36:06Z</time>
            </trkpt>
            <trkpt lon="99.690307" lat="13.214647">
                <ele>121.740000</ele>
                <time>2015-02-22T04:36:10Z</time>
            </trkpt>
            <trkpt lon="99.690281" lat="13.214548">
                <ele>123.190000</ele>
                <time>2015-02-22T04:36:18Z</time>
            </trkpt>
            <trkpt lon="99.690260" lat="13.214503">
                <ele>123.670000</ele>
                <time>2015-02-22T04:36:21Z</time>
            </trkpt>
            <trkpt lon="99.690181" lat="13.214456">
                <ele>123.190000</ele>
                <time>2015-02-22T04:36:27Z</time>
            </trkpt>
            <trkpt lon="99.690152" lat="13.214428">
                <ele>123.190000</ele>
                <time>2015-02-22T04:36:29Z</time>
            </trkpt>
            <trkpt lon="99.690118" lat="13.214309">
                <ele>124.630000</ele>
                <time>2015-02-22T04:36:35Z</time>
            </trkpt>
            <trkpt lon="99.690072" lat="13.214179">
                <ele>126.550000</ele>
                <time>2015-02-22T04:36:41Z</time>
            </trkpt>
            <trkpt lon="99.689965" lat="13.213888">
                <ele>127.510000</ele>
                <time>2015-02-22T04:36:53Z</time>
            </trkpt>
            <trkpt lon="99.689811" lat="13.213465">
                <ele>128.470000</ele>
                <time>2015-02-22T04:37:10Z</time>
            </trkpt>
            <trkpt lon="99.689638" lat="13.213218">
                <ele>127.030000</ele>
                <time>2015-02-22T04:37:22Z</time>
            </trkpt>
            <trkpt lon="99.689416" lat="13.212927">
                <ele>125.110000</ele>
                <time>2015-02-22T04:37:37Z</time>
            </trkpt>
            <trkpt lon="99.689244" lat="13.212578">
                <ele>126.550000</ele>
                <time>2015-02-22T04:37:52Z</time>
            </trkpt>
            <trkpt lon="99.689158" lat="13.212526">
                <ele>127.510000</ele>
                <time>2015-02-22T04:37:57Z</time>
            </trkpt>
            <trkpt lon="99.689009" lat="13.212552">
                <ele>127.510000</ele>
                <time>2015-02-22T04:38:04Z</time>
            </trkpt>
            <trkpt lon="99.688737" lat="13.212508">
                <ele>128.950000</ele>
                <time>2015-02-22T04:38:17Z</time>
            </trkpt>
            <trkpt lon="99.688413" lat="13.212487">
                <ele>130.400000</ele>
                <time>2015-02-22T04:38:31Z</time>
            </trkpt>
            <trkpt lon="99.687981" lat="13.212453">
                <ele>130.880000</ele>
                <time>2015-02-22T04:38:47Z</time>
            </trkpt>
            <trkpt lon="99.687555" lat="13.212422">
                <ele>130.400000</ele>
                <time>2015-02-22T04:39:02Z</time>
            </trkpt>
            <trkpt lon="99.687004" lat="13.212383">
                <ele>128.470000</ele>
                <time>2015-02-22T04:39:20Z</time>
            </trkpt>
            <trkpt lon="99.686541" lat="13.212360">
                <ele>126.550000</ele>
                <time>2015-02-22T04:39:34Z</time>
            </trkpt>
            <trkpt lon="99.686513" lat="13.212368">
                <ele>126.550000</ele>
                <time>2015-02-22T04:39:35Z</time>
            </trkpt>
            <trkpt lon="99.686391" lat="13.212626">
                <ele>127.030000</ele>
                <time>2015-02-22T04:39:47Z</time>
            </trkpt>
            <trkpt lon="99.686378" lat="13.212687">
                <ele>126.550000</ele>
                <time>2015-02-22T04:39:58Z</time>
            </trkpt>
            <trkpt lon="99.686370" lat="13.212767">
                <ele>127.990000</ele>
                <time>2015-02-22T04:40:10Z</time>
            </trkpt>
            <trkpt lon="99.686267" lat="13.212819">
                <ele>127.990000</ele>
                <time>2015-02-22T04:40:27Z</time>
            </trkpt>
            <trkpt lon="99.686254" lat="13.212820">
                <ele>127.990000</ele>
                <time>2015-02-22T04:40:30Z</time>
            </trkpt>
            <trkpt lon="99.686151" lat="13.212652">
                <ele>126.550000</ele>
                <time>2015-02-22T04:40:40Z</time>
            </trkpt>
            <trkpt lon="99.686105" lat="13.212611">
                <ele>124.630000</ele>
                <time>2015-02-22T04:40:53Z</time>
            </trkpt>
            <trkpt lon="99.686031" lat="13.212602">
                <ele>124.630000</ele>
                <time>2015-02-22T04:41:05Z</time>
            </trkpt>
            <trkpt lon="99.686011" lat="13.212632">
                <ele>125.110000</ele>
                <time>2015-02-22T04:41:11Z</time>
            </trkpt>
            <trkpt lon="99.685997" lat="13.212686">
                <ele>125.110000</ele>
                <time>2015-02-22T04:41:15Z</time>
            </trkpt>
            <trkpt lon="99.685959" lat="13.212782">
                <ele>125.590000</ele>
                <time>2015-02-22T04:41:20Z</time>
            </trkpt>
            <trkpt lon="99.685870" lat="13.212808">
                <ele>125.590000</ele>
                <time>2015-02-22T04:41:25Z</time>
            </trkpt>
            <trkpt lon="99.685523" lat="13.212658">
                <ele>124.150000</ele>
                <time>2015-02-22T04:41:40Z</time>
            </trkpt>
            <trkpt lon="99.685250" lat="13.212536">
                <ele>121.260000</ele>
                <time>2015-02-22T04:41:51Z</time>
            </trkpt>
            <trkpt lon="99.685193" lat="13.212400">
                <ele>120.300000</ele>
                <time>2015-02-22T04:42:01Z</time>
            </trkpt>
            <trkpt lon="99.685077" lat="13.212358">
                <ele>120.780000</ele>
                <time>2015-02-22T04:42:08Z</time>
            </trkpt>
            <trkpt lon="99.684766" lat="13.212392">
                <ele>122.710000</ele>
                <time>2015-02-22T04:42:22Z</time>
            </trkpt>
            <trkpt lon="99.684468" lat="13.212427">
                <ele>123.670000</ele>
                <time>2015-02-22T04:42:34Z</time>
            </trkpt>
            <trkpt lon="99.684233" lat="13.212422">
                <ele>126.070000</ele>
                <time>2015-02-22T04:42:47Z</time>
            </trkpt>
            <trkpt lon="99.683897" lat="13.212373">
                <ele>127.030000</ele>
                <time>2015-02-22T04:43:02Z</time>
            </trkpt>
            <trkpt lon="99.683710" lat="13.212320">
                <ele>127.030000</ele>
                <time>2015-02-22T04:43:09Z</time>
            </trkpt>
            <trkpt lon="99.683714" lat="13.211888">
                <ele>126.070000</ele>
                <time>2015-02-22T04:43:22Z</time>
            </trkpt>
            <trkpt lon="99.683760" lat="13.211218">
                <ele>124.630000</ele>
                <time>2015-02-22T04:43:38Z</time>
            </trkpt>
            <trkpt lon="99.683642" lat="13.210553">
                <ele>123.670000</ele>
                <time>2015-02-22T04:43:55Z</time>
            </trkpt>
            <trkpt lon="99.683514" lat="13.210477">
                <ele>122.710000</ele>
                <time>2015-02-22T04:43:59Z</time>
            </trkpt>
            <trkpt lon="99.683486" lat="13.210312">
                <ele>121.740000</ele>
                <time>2015-02-22T04:44:03Z</time>
            </trkpt>
            <trkpt lon="99.683621" lat="13.209612">
                <ele>120.300000</ele>
                <time>2015-02-22T04:44:20Z</time>
            </trkpt>
            <trkpt lon="99.683601" lat="13.209487">
                <ele>120.300000</ele>
                <time>2015-02-22T04:44:24Z</time>
            </trkpt>
            <trkpt lon="99.683577" lat="13.209150">
                <ele>121.260000</ele>
                <time>2015-02-22T04:44:35Z</time>
            </trkpt>
            <trkpt lon="99.683326" lat="13.209111">
                <ele>121.740000</ele>
                <time>2015-02-22T04:44:44Z</time>
            </trkpt>
            <trkpt lon="99.683167" lat="13.209127">
                <ele>121.740000</ele>
                <time>2015-02-22T04:44:50Z</time>
            </trkpt>
            <trkpt lon="99.683035" lat="13.209045">
                <ele>121.740000</ele>
                <time>2015-02-22T04:44:57Z</time>
            </trkpt>
            <trkpt lon="99.682686" lat="13.209041">
                <ele>123.670000</ele>
                <time>2015-02-22T04:45:11Z</time>
            </trkpt>
            <trkpt lon="99.682397" lat="13.209046">
                <ele>126.070000</ele>
                <time>2015-02-22T04:45:25Z</time>
            </trkpt>
            <trkpt lon="99.682136" lat="13.209052">
                <ele>127.510000</ele>
                <time>2015-02-22T04:45:40Z</time>
            </trkpt>
            <trkpt lon="99.681896" lat="13.209057">
                <ele>129.430000</ele>
                <time>2015-02-22T04:45:55Z</time>
            </trkpt>
            <trkpt lon="99.681807" lat="13.209058">
                <ele>129.920000</ele>
                <time>2015-02-22T04:46:01Z</time>
            </trkpt>
            <trkpt lon="99.681705" lat="13.209060">
                <ele>130.400000</ele>
                <time>2015-02-22T04:46:07Z</time>
            </trkpt>
            <trkpt lon="99.681622" lat="13.208969">
                <ele>130.400000</ele>
                <time>2015-02-22T04:46:14Z</time>
            </trkpt>
            <trkpt lon="99.681565" lat="13.208649">
                <ele>129.920000</ele>
                <time>2015-02-22T04:46:27Z</time>
            </trkpt>
            <trkpt lon="99.681507" lat="13.208606">
                <ele>129.430000</ele>
                <time>2015-02-22T04:46:30Z</time>
            </trkpt>
            <trkpt lon="99.681395" lat="13.208630">
                <ele>129.430000</ele>
                <time>2015-02-22T04:46:35Z</time>
            </trkpt>
            <trkpt lon="99.680881" lat="13.208830">
                <ele>129.920000</ele>
                <time>2015-02-22T04:46:52Z</time>
            </trkpt>
            <trkpt lon="99.680351" lat="13.209089">
                <ele>127.990000</ele>
                <time>2015-02-22T04:47:09Z</time>
            </trkpt>
            <trkpt lon="99.679713" lat="13.209216">
                <ele>126.070000</ele>
                <time>2015-02-22T04:47:24Z</time>
            </trkpt>
            <trkpt lon="99.679566" lat="13.209234">
                <ele>125.590000</ele>
                <time>2015-02-22T04:47:27Z</time>
            </trkpt>
            <trkpt lon="99.678860" lat="13.209161">
                <ele>123.670000</ele>
                <time>2015-02-22T04:47:43Z</time>
            </trkpt>
            <trkpt lon="99.678737" lat="13.208911">
                <ele>123.190000</ele>
                <time>2015-02-22T04:47:50Z</time>
            </trkpt>
            <trkpt lon="99.678513" lat="13.208299">
                <ele>124.150000</ele>
                <time>2015-02-22T04:48:08Z</time>
            </trkpt>
            <trkpt lon="99.678358" lat="13.207918">
                <ele>125.590000</ele>
                <time>2015-02-22T04:48:23Z</time>
            </trkpt>
            <trkpt lon="99.678262" lat="13.207699">
                <ele>126.550000</ele>
                <time>2015-02-22T04:48:36Z</time>
            </trkpt>
            <trkpt lon="99.678247" lat="13.207640">
                <ele>126.550000</ele>
                <time>2015-02-22T04:48:52Z</time>
            </trkpt>
            <trkpt lon="99.678206" lat="13.207507">
                <ele>127.510000</ele>
                <time>2015-02-22T04:49:13Z</time>
            </trkpt>
            <trkpt lon="99.678203" lat="13.207488">
                <ele>127.510000</ele>
                <time>2015-02-22T04:49:14Z</time>
            </trkpt>
            <trkpt lon="99.678174" lat="13.207406">
                <ele>127.510000</ele>
                <time>2015-02-22T04:49:18Z</time>
            </trkpt>
            <trkpt lon="99.678077" lat="13.207061">
                <ele>127.510000</ele>
                <time>2015-02-22T04:49:32Z</time>
            </trkpt>
            <trkpt lon="99.677818" lat="13.206767">
                <ele>127.030000</ele>
                <time>2015-02-22T04:49:45Z</time>
            </trkpt>
            <trkpt lon="99.677630" lat="13.206505">
                <ele>127.510000</ele>
                <time>2015-02-22T04:49:58Z</time>
            </trkpt>
            <trkpt lon="99.677610" lat="13.206489">
                <ele>126.550000</ele>
                <time>2015-02-22T04:50:08Z</time>
            </trkpt>
            <trkpt lon="99.677415" lat="13.206340">
                <ele>124.150000</ele>
                <time>2015-02-22T04:50:34Z</time>
            </trkpt>
            <trkpt lon="99.677445" lat="13.206232">
                <ele>123.190000</ele>
                <time>2015-02-22T04:50:39Z</time>
            </trkpt>
            <trkpt lon="99.677679" lat="13.205815">
                <ele>119.820000</ele>
                <time>2015-02-22T04:50:53Z</time>
            </trkpt>
            <trkpt lon="99.677826" lat="13.205705">
                <ele>118.860000</ele>
                <time>2015-02-22T04:50:57Z</time>
            </trkpt>
            <trkpt lon="99.678237" lat="13.205566">
                <ele>115.010000</ele>
                <time>2015-02-22T04:51:10Z</time>
            </trkpt>
            <trkpt lon="99.678510" lat="13.205364">
                <ele>112.130000</ele>
                <time>2015-02-22T04:51:20Z</time>
            </trkpt>
            <trkpt lon="99.678485" lat="13.205229">
                <ele>110.210000</ele>
                <time>2015-02-22T04:51:26Z</time>
            </trkpt>
            <trkpt lon="99.678113" lat="13.205020">
                <ele>109.250000</ele>
                <time>2015-02-22T04:51:40Z</time>
            </trkpt>
            <trkpt lon="99.677757" lat="13.204863">
                <ele>106.840000</ele>
                <time>2015-02-22T04:51:54Z</time>
            </trkpt>
            <trkpt lon="99.677565" lat="13.204724">
                <ele>104.440000</ele>
                <time>2015-02-22T04:52:02Z</time>
            </trkpt>
            <trkpt lon="99.677502" lat="13.204487">
                <ele>104.920000</ele>
                <time>2015-02-22T04:52:15Z</time>
            </trkpt>
            <trkpt lon="99.677373" lat="13.204264">
                <ele>105.880000</ele>
                <time>2015-02-22T04:52:32Z</time>
            </trkpt>
            <trkpt lon="99.677227" lat="13.204113">
                <ele>104.920000</ele>
                <time>2015-02-22T04:52:44Z</time>
            </trkpt>
            <trkpt lon="99.677198" lat="13.204087">
                <ele>104.920000</ele>
                <time>2015-02-22T04:52:46Z</time>
            </trkpt>
            <trkpt lon="99.677102" lat="13.204082">
                <ele>104.440000</ele>
                <time>2015-02-22T04:52:51Z</time>
            </trkpt>
            <trkpt lon="99.677052" lat="13.204158">
                <ele>105.880000</ele>
                <time>2015-02-22T04:52:58Z</time>
            </trkpt>
            <trkpt lon="99.676917" lat="13.204337">
                <ele>109.730000</ele>
                <time>2015-02-22T04:53:16Z</time>
            </trkpt>
            <trkpt lon="99.676820" lat="13.204505">
                <ele>111.170000</ele>
                <time>2015-02-22T04:53:31Z</time>
            </trkpt>
            <trkpt lon="99.676663" lat="13.204788">
                <ele>111.650000</ele>
                <time>2015-02-22T04:53:47Z</time>
            </trkpt>
            <trkpt lon="99.676594" lat="13.205205">
                <ele>109.250000</ele>
                <time>2015-02-22T04:53:59Z</time>
            </trkpt>
            <trkpt lon="99.676476" lat="13.205494">
                <ele>107.810000</ele>
                <time>2015-02-22T04:54:09Z</time>
            </trkpt>
            <trkpt lon="99.676366" lat="13.205730">
                <ele>109.250000</ele>
                <time>2015-02-22T04:54:21Z</time>
            </trkpt>
            <trkpt lon="99.676232" lat="13.205978">
                <ele>111.170000</ele>
                <time>2015-02-22T04:54:33Z</time>
            </trkpt>
            <trkpt lon="99.676092" lat="13.206275">
                <ele>111.650000</ele>
                <time>2015-02-22T04:54:47Z</time>
            </trkpt>
            <trkpt lon="99.675977" lat="13.206504">
                <ele>112.610000</ele>
                <time>2015-02-22T04:54:59Z</time>
            </trkpt>
            <trkpt lon="99.675879" lat="13.206684">
                <ele>114.530000</ele>
                <time>2015-02-22T04:55:12Z</time>
            </trkpt>
            <trkpt lon="99.675727" lat="13.206939">
                <ele>115.980000</ele>
                <time>2015-02-22T04:55:29Z</time>
            </trkpt>
            <trkpt lon="99.675576" lat="13.207151">
                <ele>117.420000</ele>
                <time>2015-02-22T04:55:43Z</time>
            </trkpt>
            <trkpt lon="99.675513" lat="13.207226">
                <ele>117.900000</ele>
                <time>2015-02-22T04:55:48Z</time>
            </trkpt>
            <trkpt lon="99.675321" lat="13.207457">
                <ele>118.860000</ele>
                <time>2015-02-22T04:56:05Z</time>
            </trkpt>
            <trkpt lon="99.675105" lat="13.207706">
                <ele>119.340000</ele>
                <time>2015-02-22T04:56:15Z</time>
            </trkpt>
            <trkpt lon="99.674962" lat="13.207894">
                <ele>123.190000</ele>
                <time>2015-02-22T04:56:31Z</time>
            </trkpt>
            <trkpt lon="99.674775" lat="13.208127">
                <ele>124.630000</ele>
                <time>2015-02-22T04:56:47Z</time>
            </trkpt>
            <trkpt lon="99.674765" lat="13.208138">
                <ele>124.150000</ele>
                <time>2015-02-22T04:56:48Z</time>
            </trkpt>
            <trkpt lon="99.674755" lat="13.208179">
                <ele>122.710000</ele>
                <time>2015-02-22T04:57:05Z</time>
            </trkpt>
            <trkpt lon="99.674747" lat="13.208187">
                <ele>121.740000</ele>
                <time>2015-02-22T04:57:33Z</time>
            </trkpt>
            <trkpt lon="99.674735" lat="13.208185">
                <ele>122.710000</ele>
                <time>2015-02-22T04:57:43Z</time>
            </trkpt>
            <trkpt lon="99.674556" lat="13.208437">
                <ele>123.190000</ele>
                <time>2015-02-22T04:57:56Z</time>
            </trkpt>
            <trkpt lon="99.674166" lat="13.209004">
                <ele>120.780000</ele>
                <time>2015-02-22T04:58:14Z</time>
            </trkpt>
            <trkpt lon="99.674049" lat="13.209204">
                <ele>119.820000</ele>
                <time>2015-02-22T04:58:19Z</time>
            </trkpt>
            <trkpt lon="99.673649" lat="13.209864">
                <ele>117.420000</ele>
                <time>2015-02-22T04:58:35Z</time>
            </trkpt>
            <trkpt lon="99.673557" lat="13.209966">
                <ele>116.940000</ele>
                <time>2015-02-22T04:58:39Z</time>
            </trkpt>
            <trkpt lon="99.673450" lat="13.209907">
                <ele>116.940000</ele>
                <time>2015-02-22T04:58:44Z</time>
            </trkpt>
            <trkpt lon="99.673150" lat="13.209659">
                <ele>115.500000</ele>
                <time>2015-02-22T04:58:59Z</time>
            </trkpt>
            <trkpt lon="99.672843" lat="13.209592">
                <ele>113.090000</ele>
                <time>2015-02-22T04:59:09Z</time>
            </trkpt>
            <trkpt lon="99.672454" lat="13.209383">
                <ele>108.290000</ele>
                <time>2015-02-22T04:59:23Z</time>
            </trkpt>
            <trkpt lon="99.672427" lat="13.209158">
                <ele>106.840000</ele>
                <time>2015-02-22T04:59:31Z</time>
            </trkpt>
            <trkpt lon="99.672557" lat="13.208813">
                <ele>109.730000</ele>
                <time>2015-02-22T04:59:43Z</time>
            </trkpt>
            <trkpt lon="99.672754" lat="13.208310">
                <ele>110.690000</ele>
                <time>2015-02-22T04:59:57Z</time>
            </trkpt>
            <trkpt lon="99.672983" lat="13.207661">
                <ele>110.210000</ele>
                <time>2015-02-22T05:00:13Z</time>
            </trkpt>
            <trkpt lon="99.673060" lat="13.207396">
                <ele>109.250000</ele>
                <time>2015-02-22T05:00:19Z</time>
            </trkpt>
            <trkpt lon="99.673261" lat="13.206866">
                <ele>109.250000</ele>
                <time>2015-02-22T05:00:33Z</time>
            </trkpt>
            <trkpt lon="99.673486" lat="13.206349">
                <ele>109.250000</ele>
                <time>2015-02-22T05:00:45Z</time>
            </trkpt>
            <trkpt lon="99.673523" lat="13.206244">
                <ele>109.730000</ele>
                <time>2015-02-22T05:00:48Z</time>
            </trkpt>
            <trkpt lon="99.673585" lat="13.205983">
                <ele>109.250000</ele>
                <time>2015-02-22T05:00:53Z</time>
            </trkpt>
            <trkpt lon="99.673673" lat="13.205779">
                <ele>108.290000</ele>
                <time>2015-02-22T05:00:57Z</time>
            </trkpt>
            <trkpt lon="99.673729" lat="13.205447">
                <ele>107.810000</ele>
                <time>2015-02-22T05:01:04Z</time>
            </trkpt>
            <trkpt lon="99.673793" lat="13.205172">
                <ele>106.360000</ele>
                <time>2015-02-22T05:01:10Z</time>
            </trkpt>
            <trkpt lon="99.673989" lat="13.204600">
                <ele>105.880000</ele>
                <time>2015-02-22T05:01:24Z</time>
            </trkpt>
            <trkpt lon="99.674088" lat="13.204248">
                <ele>105.880000</ele>
                <time>2015-02-22T05:01:34Z</time>
            </trkpt>
            <trkpt lon="99.674136" lat="13.204085">
                <ele>105.400000</ele>
                <time>2015-02-22T05:01:38Z</time>
            </trkpt>
            <trkpt lon="99.674289" lat="13.203586">
                <ele>106.840000</ele>
                <time>2015-02-22T05:01:52Z</time>
            </trkpt>
            <trkpt lon="99.674459" lat="13.203013">
                <ele>107.810000</ele>
                <time>2015-02-22T05:02:08Z</time>
            </trkpt>
            <trkpt lon="99.674487" lat="13.202936">
                <ele>107.320000</ele>
                <time>2015-02-22T05:02:10Z</time>
            </trkpt>
            <trkpt lon="99.674598" lat="13.202507">
                <ele>106.840000</ele>
                <time>2015-02-22T05:02:22Z</time>
            </trkpt>
            <trkpt lon="99.674708" lat="13.202171">
                <ele>107.810000</ele>
                <time>2015-02-22T05:02:35Z</time>
            </trkpt>
            <trkpt lon="99.674839" lat="13.201914">
                <ele>108.770000</ele>
                <time>2015-02-22T05:02:50Z</time>
            </trkpt>
            <trkpt lon="99.674924" lat="13.201701">
                <ele>110.690000</ele>
                <time>2015-02-22T05:03:02Z</time>
            </trkpt>
            <trkpt lon="99.675157" lat="13.201424">
                <ele>112.130000</ele>
                <time>2015-02-22T05:03:14Z</time>
            </trkpt>
            <trkpt lon="99.675314" lat="13.200955">
                <ele>108.290000</ele>
                <time>2015-02-22T05:03:30Z</time>
            </trkpt>
            <trkpt lon="99.675323" lat="13.200621">
                <ele>107.810000</ele>
                <time>2015-02-22T05:03:41Z</time>
            </trkpt>
            <trkpt lon="99.675420" lat="13.200202">
                <ele>108.770000</ele>
                <time>2015-02-22T05:03:54Z</time>
            </trkpt>
            <trkpt lon="99.675521" lat="13.199778">
                <ele>108.290000</ele>
                <time>2015-02-22T05:04:07Z</time>
            </trkpt>
            <trkpt lon="99.675598" lat="13.199448">
                <ele>109.250000</ele>
                <time>2015-02-22T05:04:18Z</time>
            </trkpt>
            <trkpt lon="99.675728" lat="13.199106">
                <ele>110.690000</ele>
                <time>2015-02-22T05:04:29Z</time>
            </trkpt>
            <trkpt lon="99.675869" lat="13.198946">
                <ele>112.130000</ele>
                <time>2015-02-22T05:04:41Z</time>
            </trkpt>
            <trkpt lon="99.675907" lat="13.198901">
                <ele>112.610000</ele>
                <time>2015-02-22T05:04:45Z</time>
            </trkpt>
            <trkpt lon="99.675944" lat="13.198870">
                <ele>113.090000</ele>
                <time>2015-02-22T05:04:49Z</time>
            </trkpt>
            <trkpt lon="99.676078" lat="13.198595">
                <ele>113.570000</ele>
                <time>2015-02-22T05:05:07Z</time>
            </trkpt>
            <trkpt lon="99.676084" lat="13.198186">
                <ele>107.810000</ele>
                <time>2015-02-22T05:05:22Z</time>
            </trkpt>
            <trkpt lon="99.676087" lat="13.197926">
                <ele>104.440000</ele>
                <time>2015-02-22T05:05:27Z</time>
            </trkpt>
            <trkpt lon="99.676038" lat="13.197754">
                <ele>103.000000</ele>
                <time>2015-02-22T05:05:30Z</time>
            </trkpt>
            <trkpt lon="99.675835" lat="13.197484">
                <ele>100.110000</ele>
                <time>2015-02-22T05:05:35Z</time>
            </trkpt>
            <trkpt lon="99.675324" lat="13.197090">
                <ele>97.230000</ele>
                <time>2015-02-22T05:05:45Z</time>
            </trkpt>
            <trkpt lon="99.674903" lat="13.196756">
                <ele>95.310000</ele>
                <time>2015-02-22T05:05:55Z</time>
            </trkpt>
            <trkpt lon="99.674815" lat="13.196636">
                <ele>94.830000</ele>
                <time>2015-02-22T05:05:58Z</time>
            </trkpt>
            <trkpt lon="99.674795" lat="13.196586">
                <ele>94.350000</ele>
                <time>2015-02-22T05:05:59Z</time>
            </trkpt>
            <trkpt lon="99.674785" lat="13.196548">
                <ele>94.350000</ele>
                <time>2015-02-22T05:06:00Z</time>
            </trkpt>
            <trkpt lon="99.674779" lat="13.196506">
                <ele>94.350000</ele>
                <time>2015-02-22T05:06:01Z</time>
            </trkpt>
            <trkpt lon="99.674645" lat="13.195985">
                <ele>94.350000</ele>
                <time>2015-02-22T05:06:14Z</time>
            </trkpt>
            <trkpt lon="99.674628" lat="13.195869">
                <ele>93.870000</ele>
                <time>2015-02-22T05:06:17Z</time>
            </trkpt>
            <trkpt lon="99.674625" lat="13.195640">
                <ele>93.870000</ele>
                <time>2015-02-22T05:06:22Z</time>
            </trkpt>
            <trkpt lon="99.674870" lat="13.195359">
                <ele>92.900000</ele>
                <time>2015-02-22T05:06:31Z</time>
            </trkpt>
            <trkpt lon="99.674954" lat="13.195352">
                <ele>92.900000</ele>
                <time>2015-02-22T05:06:33Z</time>
            </trkpt>
            <trkpt lon="99.675150" lat="13.195272">
                <ele>92.420000</ele>
                <time>2015-02-22T05:06:38Z</time>
            </trkpt>
            <trkpt lon="99.675269" lat="13.195144">
                <ele>92.900000</ele>
                <time>2015-02-22T05:06:42Z</time>
            </trkpt>
            <trkpt lon="99.675628" lat="13.194774">
                <ele>94.830000</ele>
                <time>2015-02-22T05:06:53Z</time>
            </trkpt>
            <trkpt lon="99.675833" lat="13.194551">
                <ele>95.790000</ele>
                <time>2015-02-22T05:06:59Z</time>
            </trkpt>
            <trkpt lon="99.675952" lat="13.194421">
                <ele>95.790000</ele>
                <time>2015-02-22T05:07:03Z</time>
            </trkpt>
            <trkpt lon="99.676025" lat="13.194361">
                <ele>95.790000</ele>
                <time>2015-02-22T05:07:05Z</time>
            </trkpt>
            <trkpt lon="99.676322" lat="13.194446">
                <ele>93.870000</ele>
                <time>2015-02-22T05:07:13Z</time>
            </trkpt>
            <trkpt lon="99.676398" lat="13.194446">
                <ele>93.870000</ele>
                <time>2015-02-22T05:07:15Z</time>
            </trkpt>
            <trkpt lon="99.676432" lat="13.194424">
                <ele>93.870000</ele>
                <time>2015-02-22T05:07:16Z</time>
            </trkpt>
            <trkpt lon="99.676456" lat="13.194393">
                <ele>93.390000</ele>
                <time>2015-02-22T05:07:17Z</time>
            </trkpt>
            <trkpt lon="99.676475" lat="13.194352">
                <ele>93.390000</ele>
                <time>2015-02-22T05:07:18Z</time>
            </trkpt>
            <trkpt lon="99.676490" lat="13.194308">
                <ele>92.900000</ele>
                <time>2015-02-22T05:07:19Z</time>
            </trkpt>
            <trkpt lon="99.676538" lat="13.194169">
                <ele>92.900000</ele>
                <time>2015-02-22T05:07:22Z</time>
            </trkpt>
            <trkpt lon="99.676829" lat="13.193367">
                <ele>92.900000</ele>
                <time>2015-02-22T05:07:39Z</time>
            </trkpt>
            <trkpt lon="99.676996" lat="13.192542">
                <ele>91.940000</ele>
                <time>2015-02-22T05:07:58Z</time>
            </trkpt>
            <trkpt lon="99.677034" lat="13.192402">
                <ele>91.940000</ele>
                <time>2015-02-22T05:08:04Z</time>
            </trkpt>
            <trkpt lon="99.677232" lat="13.192410">
                <ele>92.420000</ele>
                <time>2015-02-22T05:08:18Z</time>
            </trkpt>
            <trkpt lon="99.677219" lat="13.192397">
                <ele>91.940000</ele>
                <time>2015-02-22T05:08:35Z</time>
            </trkpt>
            <trkpt lon="99.677137" lat="13.192384">
                <ele>91.940000</ele>
                <time>2015-02-22T05:08:40Z</time>
            </trkpt>
            <trkpt lon="99.677040" lat="13.192360">
                <ele>91.460000</ele>
                <time>2015-02-22T05:08:44Z</time>
            </trkpt>
            <trkpt lon="99.677018" lat="13.192344">
                <ele>90.980000</ele>
                <time>2015-02-22T05:08:45Z</time>
            </trkpt>
            <trkpt lon="99.677007" lat="13.192327">
                <ele>90.980000</ele>
                <time>2015-02-22T05:08:46Z</time>
            </trkpt>
            <trkpt lon="99.676999" lat="13.192306">
                <ele>90.980000</ele>
                <time>2015-02-22T05:08:47Z</time>
            </trkpt>
            <trkpt lon="99.676996" lat="13.192287">
                <ele>90.500000</ele>
                <time>2015-02-22T05:08:48Z</time>
            </trkpt>
            <trkpt lon="99.676996" lat="13.192267">
                <ele>90.500000</ele>
                <time>2015-02-22T05:08:49Z</time>
            </trkpt>
            <trkpt lon="99.676996" lat="13.192248">
                <ele>90.500000</ele>
                <time>2015-02-22T05:08:50Z</time>
            </trkpt>
            <trkpt lon="99.676995" lat="13.192226">
                <ele>90.980000</ele>
                <time>2015-02-22T05:08:51Z</time>
            </trkpt>
            <trkpt lon="99.676983" lat="13.191823">
                <ele>91.940000</ele>
                <time>2015-02-22T05:09:04Z</time>
            </trkpt>
            <trkpt lon="99.677023" lat="13.191184">
                <ele>93.390000</ele>
                <time>2015-02-22T05:09:21Z</time>
            </trkpt>
            <trkpt lon="99.677191" lat="13.191084">
                <ele>93.870000</ele>
                <time>2015-02-22T05:09:26Z</time>
            </trkpt>
            <trkpt lon="99.677983" lat="13.190877">
                <ele>94.830000</ele>
                <time>2015-02-22T05:09:45Z</time>
            </trkpt>
            <trkpt lon="99.678542" lat="13.190698">
                <ele>96.750000</ele>
                <time>2015-02-22T05:10:01Z</time>
            </trkpt>
            <trkpt lon="99.678792" lat="13.190364">
                <ele>100.600000</ele>
                <time>2015-02-22T05:10:15Z</time>
            </trkpt>
            <trkpt lon="99.678839" lat="13.189812">
                <ele>101.560000</ele>
                <time>2015-02-22T05:10:30Z</time>
            </trkpt>
            <trkpt lon="99.678789" lat="13.189440">
                <ele>102.520000</ele>
                <time>2015-02-22T05:10:44Z</time>
            </trkpt>
            <trkpt lon="99.678733" lat="13.189032">
                <ele>103.000000</ele>
                <time>2015-02-22T05:11:03Z</time>
            </trkpt>
            <trkpt lon="99.678675" lat="13.188663">
                <ele>104.920000</ele>
                <time>2015-02-22T05:11:23Z</time>
            </trkpt>
            <trkpt lon="99.678638" lat="13.188386">
                <ele>107.810000</ele>
                <time>2015-02-22T05:11:38Z</time>
            </trkpt>
            <trkpt lon="99.678624" lat="13.188124">
                <ele>110.210000</ele>
                <time>2015-02-22T05:11:53Z</time>
            </trkpt>
            <trkpt lon="99.678858" lat="13.188026">
                <ele>112.130000</ele>
                <time>2015-02-22T05:12:06Z</time>
            </trkpt>
            <trkpt lon="99.679408" lat="13.187911">
                <ele>113.090000</ele>
                <time>2015-02-22T05:12:25Z</time>
            </trkpt>
            <trkpt lon="99.679880" lat="13.187625">
                <ele>115.500000</ele>
                <time>2015-02-22T05:12:41Z</time>
            </trkpt>
            <trkpt lon="99.680226" lat="13.187152">
                <ele>119.340000</ele>
                <time>2015-02-22T05:12:58Z</time>
            </trkpt>
            <trkpt lon="99.680466" lat="13.186468">
                <ele>119.340000</ele>
                <time>2015-02-22T05:13:14Z</time>
            </trkpt>
            <trkpt lon="99.680467" lat="13.186145">
                <ele>117.900000</ele>
                <time>2015-02-22T05:13:20Z</time>
            </trkpt>
            <trkpt lon="99.680436" lat="13.185491">
                <ele>117.420000</ele>
                <time>2015-02-22T05:13:32Z</time>
            </trkpt>
            <trkpt lon="99.680420" lat="13.185441">
                <ele>116.940000</ele>
                <time>2015-02-22T05:13:33Z</time>
            </trkpt>
            <trkpt lon="99.680395" lat="13.185399">
                <ele>116.940000</ele>
                <time>2015-02-22T05:13:34Z</time>
            </trkpt>
            <trkpt lon="99.680359" lat="13.185368">
                <ele>117.420000</ele>
                <time>2015-02-22T05:13:35Z</time>
            </trkpt>
            <trkpt lon="99.680322" lat="13.185344">
                <ele>117.420000</ele>
                <time>2015-02-22T05:13:36Z</time>
            </trkpt>
            <trkpt lon="99.680214" lat="13.185321">
                <ele>117.420000</ele>
                <time>2015-02-22T05:13:39Z</time>
            </trkpt>
            <trkpt lon="99.680137" lat="13.185326">
                <ele>117.900000</ele>
                <time>2015-02-22T05:13:42Z</time>
            </trkpt>
            <trkpt lon="99.679912" lat="13.185380">
                <ele>117.420000</ele>
                <time>2015-02-22T05:13:54Z</time>
            </trkpt>
            <trkpt lon="99.679730" lat="13.185371">
                <ele>117.420000</ele>
                <time>2015-02-22T05:14:01Z</time>
            </trkpt>
            <trkpt lon="99.679683" lat="13.185409">
                <ele>115.980000</ele>
                <time>2015-02-22T05:14:13Z</time>
            </trkpt>
            <trkpt lon="99.679687" lat="13.185425">
                <ele>117.900000</ele>
                <time>2015-02-22T05:14:26Z</time>
            </trkpt>
        </trkseg>
    </trk>
</gpx>